<?xml version="1.0" encoding="UTF-8" standalone="no" ?>
<gpx xmlns="http://www.topografix.com/GPX/1/1" xmlns:xsi="http://www.w3.org/2001/XMLSchema-instance" xsi:schemaLocation="http://www.topografix.com/GPX/1/1 http://www.topografix.com/GPX/1/1/gpx.xsd" version="1.1" creator="VisuGPX - https://www.visugpx.com">
  <metadata>
    <name>Pic du MONTAIGU</name>
    <desc><![CDATA[Départ de la vallée de Lesponne
route forestière => Altitude 1135m
A 100m environ du début, prendre sentier de gauche au cairn,
car l\'autre a été enseveli sous une avalanche.]]></desc>
  </metadata>
  <trk>
    <name><![CDATA[Pic du Montaigu 1]]></name>
    <trkseg>
      <trkpt lat="42.99182" lon="0.09537">
        <ele>1141</ele>
        <time>2015-06-13T06:24:32Z</time>
      </trkpt>
      <trkpt lat="42.99182" lon="0.09537">
        <ele>1141</ele>
        <time>2015-06-13T06:24:33Z</time>
      </trkpt>
      <trkpt lat="42.99174" lon="0.09534">
        <ele>1139.1</ele>
        <time>2015-06-13T06:26:43Z</time>
      </trkpt>
      <trkpt lat="42.99173" lon="0.09534">
        <ele>1141.3</ele>
        <time>2015-06-13T06:27:41Z</time>
      </trkpt>
      <trkpt lat="42.99173" lon="0.09534">
        <ele>1141.1</ele>
        <time>2015-06-13T06:27:43Z</time>
      </trkpt>
      <trkpt lat="42.99172" lon="0.09534">
        <ele>1141</ele>
        <time>2015-06-13T06:27:44Z</time>
      </trkpt>
      <trkpt lat="42.99181" lon="0.09535">
        <ele>1118.4</ele>
        <time>2015-06-13T06:29:30Z</time>
      </trkpt>
      <trkpt lat="42.99182" lon="0.09535">
        <ele>1118.8</ele>
        <time>2015-06-13T06:29:31Z</time>
      </trkpt>
      <trkpt lat="42.99188" lon="0.09516">
        <ele>1145.4</ele>
        <time>2015-06-13T06:29:59Z</time>
      </trkpt>
      <trkpt lat="42.99187" lon="0.09505">
        <ele>1152.5</ele>
        <time>2015-06-13T06:30:09Z</time>
      </trkpt>
      <trkpt lat="42.99187" lon="0.09493">
        <ele>1156.6</ele>
        <time>2015-06-13T06:30:22Z</time>
      </trkpt>
      <trkpt lat="42.99185" lon="0.09483">
        <ele>1161.7</ele>
        <time>2015-06-13T06:30:31Z</time>
      </trkpt>
      <trkpt lat="42.99185" lon="0.09481">
        <ele>1161.9</ele>
        <time>2015-06-13T06:30:32Z</time>
      </trkpt>
      <trkpt lat="42.99179" lon="0.0946">
        <ele>1163.1</ele>
        <time>2015-06-13T06:30:52Z</time>
      </trkpt>
      <trkpt lat="42.99179" lon="0.09448">
        <ele>1161.6</ele>
        <time>2015-06-13T06:31:03Z</time>
      </trkpt>
      <trkpt lat="42.99178" lon="0.09437">
        <ele>1159.3</ele>
        <time>2015-06-13T06:31:14Z</time>
      </trkpt>
      <trkpt lat="42.99177" lon="0.09425">
        <ele>1154</ele>
        <time>2015-06-13T06:31:25Z</time>
      </trkpt>
      <trkpt lat="42.99173" lon="0.09415">
        <ele>1157.4</ele>
        <time>2015-06-13T06:31:37Z</time>
      </trkpt>
      <trkpt lat="42.99173" lon="0.09414">
        <ele>1157.8</ele>
        <time>2015-06-13T06:31:38Z</time>
      </trkpt>
      <trkpt lat="42.99161" lon="0.09398">
        <ele>1160.5</ele>
        <time>2015-06-13T06:32:02Z</time>
      </trkpt>
      <trkpt lat="42.99159" lon="0.09386">
        <ele>1173.1</ele>
        <time>2015-06-13T06:32:19Z</time>
      </trkpt>
      <trkpt lat="42.99161" lon="0.09375">
        <ele>1176</ele>
        <time>2015-06-13T06:32:31Z</time>
      </trkpt>
      <trkpt lat="42.99164" lon="0.09364">
        <ele>1174.8</ele>
        <time>2015-06-13T06:32:45Z</time>
      </trkpt>
      <trkpt lat="42.99165" lon="0.09363">
        <ele>1174.7</ele>
        <time>2015-06-13T06:32:46Z</time>
      </trkpt>
      <trkpt lat="42.99165" lon="0.09341">
        <ele>1171.2</ele>
        <time>2015-06-13T06:33:06Z</time>
      </trkpt>
      <trkpt lat="42.99164" lon="0.0933">
        <ele>1172.1</ele>
        <time>2015-06-13T06:33:17Z</time>
      </trkpt>
      <trkpt lat="42.99164" lon="0.09319">
        <ele>1171</ele>
        <time>2015-06-13T06:33:27Z</time>
      </trkpt>
      <trkpt lat="42.99165" lon="0.09307">
        <ele>1170.2</ele>
        <time>2015-06-13T06:33:39Z</time>
      </trkpt>
      <trkpt lat="42.99169" lon="0.09297">
        <ele>1175</ele>
        <time>2015-06-13T06:33:52Z</time>
      </trkpt>
      <trkpt lat="42.9917" lon="0.09296">
        <ele>1175.5</ele>
        <time>2015-06-13T06:33:53Z</time>
      </trkpt>
      <trkpt lat="42.99169" lon="0.09273">
        <ele>1182.5</ele>
        <time>2015-06-13T06:34:15Z</time>
      </trkpt>
      <trkpt lat="42.9917" lon="0.09262">
        <ele>1196.6</ele>
        <time>2015-06-13T06:34:29Z</time>
      </trkpt>
      <trkpt lat="42.99173" lon="0.0925">
        <ele>1200.5</ele>
        <time>2015-06-13T06:34:42Z</time>
      </trkpt>
      <trkpt lat="42.99177" lon="0.09239">
        <ele>1200.7</ele>
        <time>2015-06-13T06:34:53Z</time>
      </trkpt>
      <trkpt lat="42.99177" lon="0.09238">
        <ele>1200.9</ele>
        <time>2015-06-13T06:34:54Z</time>
      </trkpt>
      <trkpt lat="42.99183" lon="0.09218">
        <ele>1204.1</ele>
        <time>2015-06-13T06:35:18Z</time>
      </trkpt>
      <trkpt lat="42.99183" lon="0.09206">
        <ele>1206.3</ele>
        <time>2015-06-13T06:35:31Z</time>
      </trkpt>
      <trkpt lat="42.99181" lon="0.09195">
        <ele>1209.2</ele>
        <time>2015-06-13T06:35:44Z</time>
      </trkpt>
      <trkpt lat="42.99181" lon="0.09183">
        <ele>1210.2</ele>
        <time>2015-06-13T06:35:58Z</time>
      </trkpt>
      <trkpt lat="42.99181" lon="0.09182">
        <ele>1210.6</ele>
        <time>2015-06-13T06:35:59Z</time>
      </trkpt>
      <trkpt lat="42.99177" lon="0.09161">
        <ele>1215.4</ele>
        <time>2015-06-13T06:36:23Z</time>
      </trkpt>
      <trkpt lat="42.99175" lon="0.09149">
        <ele>1217.1</ele>
        <time>2015-06-13T06:36:35Z</time>
      </trkpt>
      <trkpt lat="42.99175" lon="0.09137">
        <ele>1219.1</ele>
        <time>2015-06-13T06:36:48Z</time>
      </trkpt>
      <trkpt lat="42.99172" lon="0.09126">
        <ele>1220.5</ele>
        <time>2015-06-13T06:36:58Z</time>
      </trkpt>
      <trkpt lat="42.99169" lon="0.09115">
        <ele>1223</ele>
        <time>2015-06-13T06:37:13Z</time>
      </trkpt>
      <trkpt lat="42.9917" lon="0.09114">
        <ele>1223.3</ele>
        <time>2015-06-13T06:37:14Z</time>
      </trkpt>
      <trkpt lat="42.99175" lon="0.09097">
        <ele>1224.6</ele>
        <time>2015-06-13T06:38:21Z</time>
      </trkpt>
      <trkpt lat="42.99175" lon="0.09096">
        <ele>1224.6</ele>
        <time>2015-06-13T06:38:22Z</time>
      </trkpt>
      <trkpt lat="42.99182" lon="0.09077">
        <ele>1226.3</ele>
        <time>2015-06-13T06:38:39Z</time>
      </trkpt>
      <trkpt lat="42.99183" lon="0.09065">
        <ele>1226.8</ele>
        <time>2015-06-13T06:38:48Z</time>
      </trkpt>
      <trkpt lat="42.99184" lon="0.09054">
        <ele>1228.2</ele>
        <time>2015-06-13T06:38:56Z</time>
      </trkpt>
      <trkpt lat="42.99187" lon="0.09044">
        <ele>1229.6</ele>
        <time>2015-06-13T06:39:05Z</time>
      </trkpt>
      <trkpt lat="42.99191" lon="0.09034">
        <ele>1230.2</ele>
        <time>2015-06-13T06:39:13Z</time>
      </trkpt>
      <trkpt lat="42.99196" lon="0.09024">
        <ele>1231.7</ele>
        <time>2015-06-13T06:39:21Z</time>
      </trkpt>
      <trkpt lat="42.99199" lon="0.09013">
        <ele>1232.6</ele>
        <time>2015-06-13T06:39:32Z</time>
      </trkpt>
      <trkpt lat="42.99199" lon="0.09012">
        <ele>1232.8</ele>
        <time>2015-06-13T06:39:33Z</time>
      </trkpt>
      <trkpt lat="42.99209" lon="0.08994">
        <ele>1234.6</ele>
        <time>2015-06-13T06:39:52Z</time>
      </trkpt>
      <trkpt lat="42.99214" lon="0.08985">
        <ele>1234.2</ele>
        <time>2015-06-13T06:40:04Z</time>
      </trkpt>
      <trkpt lat="42.99221" lon="0.08979">
        <ele>1237</ele>
        <time>2015-06-13T06:40:12Z</time>
      </trkpt>
      <trkpt lat="42.99228" lon="0.08973">
        <ele>1237.6</ele>
        <time>2015-06-13T06:40:20Z</time>
      </trkpt>
      <trkpt lat="42.99236" lon="0.08969">
        <ele>1238.7</ele>
        <time>2015-06-13T06:40:29Z</time>
      </trkpt>
      <trkpt lat="42.99242" lon="0.08961">
        <ele>1241.8</ele>
        <time>2015-06-13T06:41:11Z</time>
      </trkpt>
      <trkpt lat="42.99244" lon="0.0896">
        <ele>1241.9</ele>
        <time>2015-06-13T06:41:13Z</time>
      </trkpt>
      <trkpt lat="42.99256" lon="0.08948">
        <ele>1243</ele>
        <time>2015-06-13T06:41:38Z</time>
      </trkpt>
      <trkpt lat="42.99261" lon="0.08938">
        <ele>1244.1</ele>
        <time>2015-06-13T06:42:04Z</time>
      </trkpt>
      <trkpt lat="42.99265" lon="0.08927">
        <ele>1246.9</ele>
        <time>2015-06-13T06:42:22Z</time>
      </trkpt>
      <trkpt lat="42.99265" lon="0.08926">
        <ele>1247.1</ele>
        <time>2015-06-13T06:42:23Z</time>
      </trkpt>
      <trkpt lat="42.9927" lon="0.08906">
        <ele>1253.3</ele>
        <time>2015-06-13T06:42:55Z</time>
      </trkpt>
      <trkpt lat="42.99273" lon="0.08895">
        <ele>1255.3</ele>
        <time>2015-06-13T06:43:09Z</time>
      </trkpt>
      <trkpt lat="42.99276" lon="0.08884">
        <ele>1254.1</ele>
        <time>2015-06-13T06:43:43Z</time>
      </trkpt>
      <trkpt lat="42.99275" lon="0.08883">
        <ele>1254.1</ele>
        <time>2015-06-13T06:43:44Z</time>
      </trkpt>
      <trkpt lat="42.99281" lon="0.08863">
        <ele>1257</ele>
        <time>2015-06-13T06:44:31Z</time>
      </trkpt>
      <trkpt lat="42.99277" lon="0.08852">
        <ele>1256.8</ele>
        <time>2015-06-13T06:44:52Z</time>
      </trkpt>
      <trkpt lat="42.99277" lon="0.08852">
        <ele>1256.8</ele>
        <time>2015-06-13T06:44:53Z</time>
      </trkpt>
      <trkpt lat="42.9927" lon="0.0883">
        <ele>1259.2</ele>
        <time>2015-06-13T06:45:25Z</time>
      </trkpt>
      <trkpt lat="42.9927" lon="0.08818">
        <ele>1261.5</ele>
        <time>2015-06-13T06:45:51Z</time>
      </trkpt>
      <trkpt lat="42.9927" lon="0.08806">
        <ele>1262.9</ele>
        <time>2015-06-13T06:46:15Z</time>
      </trkpt>
      <trkpt lat="42.9927" lon="0.08806">
        <ele>1262.8</ele>
        <time>2015-06-13T06:46:16Z</time>
      </trkpt>
      <trkpt lat="42.99271" lon="0.08782">
        <ele>1264.2</ele>
        <time>2015-06-13T06:47:05Z</time>
      </trkpt>
      <trkpt lat="42.99273" lon="0.08771">
        <ele>1267.7</ele>
        <time>2015-06-13T06:47:40Z</time>
      </trkpt>
      <trkpt lat="42.99273" lon="0.0877">
        <ele>1267.7</ele>
        <time>2015-06-13T06:47:41Z</time>
      </trkpt>
      <trkpt lat="42.99265" lon="0.08751">
        <ele>1274.2</ele>
        <time>2015-06-13T06:49:10Z</time>
      </trkpt>
      <trkpt lat="42.99264" lon="0.08751">
        <ele>1274.4</ele>
        <time>2015-06-13T06:49:11Z</time>
      </trkpt>
      <trkpt lat="42.99272" lon="0.08743">
        <ele>1275.6</ele>
        <time>2015-06-13T06:50:56Z</time>
      </trkpt>
      <trkpt lat="42.99275" lon="0.08723">
        <ele>1275.5</ele>
        <time>2015-06-13T06:51:08Z</time>
      </trkpt>
      <trkpt lat="42.99276" lon="0.08711">
        <ele>1275.9</ele>
        <time>2015-06-13T06:51:17Z</time>
      </trkpt>
      <trkpt lat="42.99285" lon="0.08707">
        <ele>1279.4</ele>
        <time>2015-06-13T06:51:37Z</time>
      </trkpt>
      <trkpt lat="42.99289" lon="0.08697">
        <ele>1282.2</ele>
        <time>2015-06-13T06:51:53Z</time>
      </trkpt>
      <trkpt lat="42.99287" lon="0.08685">
        <ele>1284.1</ele>
        <time>2015-06-13T06:52:08Z</time>
      </trkpt>
      <trkpt lat="42.99287" lon="0.08684">
        <ele>1284.8</ele>
        <time>2015-06-13T06:52:09Z</time>
      </trkpt>
      <trkpt lat="42.99296" lon="0.08666">
        <ele>1286.8</ele>
        <time>2015-06-13T06:52:26Z</time>
      </trkpt>
      <trkpt lat="42.993" lon="0.08656">
        <ele>1288.4</ele>
        <time>2015-06-13T06:52:35Z</time>
      </trkpt>
      <trkpt lat="42.99302" lon="0.08646">
        <ele>1289.6</ele>
        <time>2015-06-13T06:52:43Z</time>
      </trkpt>
      <trkpt lat="42.99305" lon="0.08636">
        <ele>1290.7</ele>
        <time>2015-06-13T06:52:50Z</time>
      </trkpt>
      <trkpt lat="42.99309" lon="0.08626">
        <ele>1292.5</ele>
        <time>2015-06-13T06:52:58Z</time>
      </trkpt>
      <trkpt lat="42.99313" lon="0.08615">
        <ele>1293.1</ele>
        <time>2015-06-13T06:53:07Z</time>
      </trkpt>
      <trkpt lat="42.99318" lon="0.08605">
        <ele>1294.2</ele>
        <time>2015-06-13T06:53:15Z</time>
      </trkpt>
      <trkpt lat="42.99318" lon="0.08604">
        <ele>1294.4</ele>
        <time>2015-06-13T06:53:16Z</time>
      </trkpt>
      <trkpt lat="42.99328" lon="0.08585">
        <ele>1296</ele>
        <time>2015-06-13T06:53:34Z</time>
      </trkpt>
      <trkpt lat="42.99332" lon="0.08575">
        <ele>1296.4</ele>
        <time>2015-06-13T06:53:43Z</time>
      </trkpt>
      <trkpt lat="42.99336" lon="0.08565">
        <ele>1297.8</ele>
        <time>2015-06-13T06:53:52Z</time>
      </trkpt>
      <trkpt lat="42.9934" lon="0.08554">
        <ele>1298.8</ele>
        <time>2015-06-13T06:54:01Z</time>
      </trkpt>
      <trkpt lat="42.99343" lon="0.08544">
        <ele>1301.4</ele>
        <time>2015-06-13T06:54:10Z</time>
      </trkpt>
      <trkpt lat="42.99347" lon="0.08534">
        <ele>1303</ele>
        <time>2015-06-13T06:54:19Z</time>
      </trkpt>
      <trkpt lat="42.99348" lon="0.08533">
        <ele>1303.1</ele>
        <time>2015-06-13T06:54:20Z</time>
      </trkpt>
      <trkpt lat="42.99359" lon="0.08518">
        <ele>1306.2</ele>
        <time>2015-06-13T06:54:36Z</time>
      </trkpt>
      <trkpt lat="42.99365" lon="0.08511">
        <ele>1307</ele>
        <time>2015-06-13T06:54:45Z</time>
      </trkpt>
      <trkpt lat="42.99371" lon="0.08502">
        <ele>1307.8</ele>
        <time>2015-06-13T06:54:55Z</time>
      </trkpt>
      <trkpt lat="42.99372" lon="0.0849">
        <ele>1310.6</ele>
        <time>2015-06-13T06:55:07Z</time>
      </trkpt>
      <trkpt lat="42.99374" lon="0.0848">
        <ele>1311.4</ele>
        <time>2015-06-13T06:55:17Z</time>
      </trkpt>
      <trkpt lat="42.99379" lon="0.0847">
        <ele>1312.8</ele>
        <time>2015-06-13T06:55:26Z</time>
      </trkpt>
      <trkpt lat="42.99379" lon="0.08469">
        <ele>1313.3</ele>
        <time>2015-06-13T06:55:27Z</time>
      </trkpt>
      <trkpt lat="42.99388" lon="0.0845">
        <ele>1318.4</ele>
        <time>2015-06-13T06:55:51Z</time>
      </trkpt>
      <trkpt lat="42.99394" lon="0.08441">
        <ele>1319.5</ele>
        <time>2015-06-13T06:56:02Z</time>
      </trkpt>
      <trkpt lat="42.994" lon="0.08431">
        <ele>1321.9</ele>
        <time>2015-06-13T06:56:11Z</time>
      </trkpt>
      <trkpt lat="42.99404" lon="0.08421">
        <ele>1323.1</ele>
        <time>2015-06-13T06:56:20Z</time>
      </trkpt>
      <trkpt lat="42.99411" lon="0.08413">
        <ele>1325.8</ele>
        <time>2015-06-13T06:56:33Z</time>
      </trkpt>
      <trkpt lat="42.99411" lon="0.08413">
        <ele>1326</ele>
        <time>2015-06-13T06:56:34Z</time>
      </trkpt>
      <trkpt lat="42.9942" lon="0.08393">
        <ele>1331.4</ele>
        <time>2015-06-13T06:57:03Z</time>
      </trkpt>
      <trkpt lat="42.99421" lon="0.08381">
        <ele>1334.6</ele>
        <time>2015-06-13T06:57:18Z</time>
      </trkpt>
      <trkpt lat="42.99427" lon="0.08373">
        <ele>1336.2</ele>
        <time>2015-06-13T06:57:28Z</time>
      </trkpt>
      <trkpt lat="42.99433" lon="0.08364">
        <ele>1336.7</ele>
        <time>2015-06-13T06:57:39Z</time>
      </trkpt>
      <trkpt lat="42.99433" lon="0.08363">
        <ele>1336.6</ele>
        <time>2015-06-13T06:57:40Z</time>
      </trkpt>
      <trkpt lat="42.99441" lon="0.08344">
        <ele>1340.3</ele>
        <time>2015-06-13T06:58:02Z</time>
      </trkpt>
      <trkpt lat="42.99447" lon="0.08336">
        <ele>1340.5</ele>
        <time>2015-06-13T06:58:10Z</time>
      </trkpt>
      <trkpt lat="42.99453" lon="0.08326">
        <ele>1341.2</ele>
        <time>2015-06-13T06:58:17Z</time>
      </trkpt>
      <trkpt lat="42.99458" lon="0.08318">
        <ele>1341.6</ele>
        <time>2015-06-13T06:58:24Z</time>
      </trkpt>
      <trkpt lat="42.99464" lon="0.0831">
        <ele>1342.6</ele>
        <time>2015-06-13T06:58:32Z</time>
      </trkpt>
      <trkpt lat="42.99468" lon="0.083">
        <ele>1343.1</ele>
        <time>2015-06-13T06:58:40Z</time>
      </trkpt>
      <trkpt lat="42.99469" lon="0.08299">
        <ele>1343.2</ele>
        <time>2015-06-13T06:58:41Z</time>
      </trkpt>
      <trkpt lat="42.99477" lon="0.08281">
        <ele>1343.7</ele>
        <time>2015-06-13T06:58:57Z</time>
      </trkpt>
      <trkpt lat="42.99483" lon="0.08273">
        <ele>1346.2</ele>
        <time>2015-06-13T06:59:06Z</time>
      </trkpt>
      <trkpt lat="42.99488" lon="0.08263">
        <ele>1346.9</ele>
        <time>2015-06-13T06:59:16Z</time>
      </trkpt>
      <trkpt lat="42.99493" lon="0.08255">
        <ele>1348.2</ele>
        <time>2015-06-13T06:59:25Z</time>
      </trkpt>
      <trkpt lat="42.99498" lon="0.08246">
        <ele>1349.1</ele>
        <time>2015-06-13T06:59:34Z</time>
      </trkpt>
      <trkpt lat="42.99504" lon="0.08238">
        <ele>1350</ele>
        <time>2015-06-13T06:59:43Z</time>
      </trkpt>
      <trkpt lat="42.99505" lon="0.08237">
        <ele>1350.5</ele>
        <time>2015-06-13T06:59:44Z</time>
      </trkpt>
      <trkpt lat="42.99516" lon="0.08222">
        <ele>1351.5</ele>
        <time>2015-06-13T07:00:01Z</time>
      </trkpt>
      <trkpt lat="42.9952" lon="0.08212">
        <ele>1353.5</ele>
        <time>2015-06-13T07:00:11Z</time>
      </trkpt>
      <trkpt lat="42.99523" lon="0.08201">
        <ele>1356.3</ele>
        <time>2015-06-13T07:00:24Z</time>
      </trkpt>
      <trkpt lat="42.99529" lon="0.08192">
        <ele>1358.7</ele>
        <time>2015-06-13T07:00:35Z</time>
      </trkpt>
      <trkpt lat="42.99533" lon="0.08181">
        <ele>1360.5</ele>
        <time>2015-06-13T07:00:51Z</time>
      </trkpt>
      <trkpt lat="42.99533" lon="0.08181">
        <ele>1360.8</ele>
        <time>2015-06-13T07:00:52Z</time>
      </trkpt>
      <trkpt lat="42.99542" lon="0.08161">
        <ele>1366.6</ele>
        <time>2015-06-13T07:01:25Z</time>
      </trkpt>
      <trkpt lat="42.99547" lon="0.08152">
        <ele>1368.4</ele>
        <time>2015-06-13T07:01:39Z</time>
      </trkpt>
      <trkpt lat="42.99554" lon="0.08144">
        <ele>1370.7</ele>
        <time>2015-06-13T07:01:53Z</time>
      </trkpt>
      <trkpt lat="42.99554" lon="0.08144">
        <ele>1370.6</ele>
        <time>2015-06-13T07:01:54Z</time>
      </trkpt>
      <trkpt lat="42.99565" lon="0.08125">
        <ele>1375.8</ele>
        <time>2015-06-13T07:02:18Z</time>
      </trkpt>
      <trkpt lat="42.9957" lon="0.08115">
        <ele>1377.2</ele>
        <time>2015-06-13T07:02:30Z</time>
      </trkpt>
      <trkpt lat="42.99575" lon="0.08106">
        <ele>1378.9</ele>
        <time>2015-06-13T07:02:42Z</time>
      </trkpt>
      <trkpt lat="42.99579" lon="0.08095">
        <ele>1379.9</ele>
        <time>2015-06-13T07:02:54Z</time>
      </trkpt>
      <trkpt lat="42.99579" lon="0.08094">
        <ele>1379.9</ele>
        <time>2015-06-13T07:02:55Z</time>
      </trkpt>
      <trkpt lat="42.99587" lon="0.08075">
        <ele>1382.1</ele>
        <time>2015-06-13T07:03:27Z</time>
      </trkpt>
      <trkpt lat="42.99594" lon="0.08067">
        <ele>1382.6</ele>
        <time>2015-06-13T07:03:38Z</time>
      </trkpt>
      <trkpt lat="42.99597" lon="0.08057">
        <ele>1385.4</ele>
        <time>2015-06-13T07:03:53Z</time>
      </trkpt>
      <trkpt lat="42.996" lon="0.08046">
        <ele>1386.4</ele>
        <time>2015-06-13T07:04:03Z</time>
      </trkpt>
      <trkpt lat="42.996" lon="0.08045">
        <ele>1386.7</ele>
        <time>2015-06-13T07:04:04Z</time>
      </trkpt>
      <trkpt lat="42.99611" lon="0.08028">
        <ele>1390.3</ele>
        <time>2015-06-13T07:04:25Z</time>
      </trkpt>
      <trkpt lat="42.99619" lon="0.08022">
        <ele>1391.6</ele>
        <time>2015-06-13T07:04:38Z</time>
      </trkpt>
      <trkpt lat="42.99626" lon="0.08018">
        <ele>1394.6</ele>
        <time>2015-06-13T07:04:50Z</time>
      </trkpt>
      <trkpt lat="42.99633" lon="0.08011">
        <ele>1397.2</ele>
        <time>2015-06-13T07:05:01Z</time>
      </trkpt>
      <trkpt lat="42.99638" lon="0.08001">
        <ele>1399</ele>
        <time>2015-06-13T07:05:12Z</time>
      </trkpt>
      <trkpt lat="42.99639" lon="0.08">
        <ele>1399.1</ele>
        <time>2015-06-13T07:05:13Z</time>
      </trkpt>
      <trkpt lat="42.99648" lon="0.07981">
        <ele>1401.4</ele>
        <time>2015-06-13T07:05:35Z</time>
      </trkpt>
      <trkpt lat="42.99653" lon="0.07972">
        <ele>1405.2</ele>
        <time>2015-06-13T07:05:52Z</time>
      </trkpt>
      <trkpt lat="42.99658" lon="0.07981">
        <ele>1405.8</ele>
        <time>2015-06-13T07:06:24Z</time>
      </trkpt>
      <trkpt lat="42.99658" lon="0.07982">
        <ele>1405.8</ele>
        <time>2015-06-13T07:06:25Z</time>
      </trkpt>
      <trkpt lat="42.99673" lon="0.0798">
        <ele>1415.7</ele>
        <time>2015-06-13T07:07:17Z</time>
      </trkpt>
      <trkpt lat="42.9968" lon="0.07972">
        <ele>1419.7</ele>
        <time>2015-06-13T07:07:41Z</time>
      </trkpt>
      <trkpt lat="42.9968" lon="0.07972">
        <ele>1419.9</ele>
        <time>2015-06-13T07:07:42Z</time>
      </trkpt>
      <trkpt lat="42.99688" lon="0.07952">
        <ele>1426.9</ele>
        <time>2015-06-13T07:08:17Z</time>
      </trkpt>
      <trkpt lat="42.9969" lon="0.0794">
        <ele>1429.8</ele>
        <time>2015-06-13T07:08:32Z</time>
      </trkpt>
      <trkpt lat="42.99692" lon="0.07929">
        <ele>1431.6</ele>
        <time>2015-06-13T07:08:45Z</time>
      </trkpt>
      <trkpt lat="42.99692" lon="0.07928">
        <ele>1431.9</ele>
        <time>2015-06-13T07:08:46Z</time>
      </trkpt>
      <trkpt lat="42.99687" lon="0.07906">
        <ele>1437.1</ele>
        <time>2015-06-13T07:09:15Z</time>
      </trkpt>
      <trkpt lat="42.99685" lon="0.07895">
        <ele>1439.2</ele>
        <time>2015-06-13T07:09:29Z</time>
      </trkpt>
      <trkpt lat="42.99681" lon="0.07884">
        <ele>1442.2</ele>
        <time>2015-06-13T07:09:43Z</time>
      </trkpt>
      <trkpt lat="42.9968" lon="0.07872">
        <ele>1442.8</ele>
        <time>2015-06-13T07:09:55Z</time>
      </trkpt>
      <trkpt lat="42.9968" lon="0.0787">
        <ele>1442.8</ele>
        <time>2015-06-13T07:09:56Z</time>
      </trkpt>
      <trkpt lat="42.99674" lon="0.0785">
        <ele>1445</ele>
        <time>2015-06-13T07:10:16Z</time>
      </trkpt>
      <trkpt lat="42.99674" lon="0.07838">
        <ele>1446.5</ele>
        <time>2015-06-13T07:10:26Z</time>
      </trkpt>
      <trkpt lat="42.99676" lon="0.07826">
        <ele>1447.7</ele>
        <time>2015-06-13T07:10:37Z</time>
      </trkpt>
      <trkpt lat="42.99677" lon="0.07815">
        <ele>1448.6</ele>
        <time>2015-06-13T07:10:47Z</time>
      </trkpt>
      <trkpt lat="42.99677" lon="0.07803">
        <ele>1449.8</ele>
        <time>2015-06-13T07:10:56Z</time>
      </trkpt>
      <trkpt lat="42.99678" lon="0.07802">
        <ele>1450</ele>
        <time>2015-06-13T07:10:57Z</time>
      </trkpt>
      <trkpt lat="42.99684" lon="0.07782">
        <ele>1454.2</ele>
        <time>2015-06-13T07:11:20Z</time>
      </trkpt>
      <trkpt lat="42.99688" lon="0.07771">
        <ele>1454.7</ele>
        <time>2015-06-13T07:11:30Z</time>
      </trkpt>
      <trkpt lat="42.99687" lon="0.0776">
        <ele>1455.9</ele>
        <time>2015-06-13T07:11:39Z</time>
      </trkpt>
      <trkpt lat="42.99687" lon="0.07748">
        <ele>1458.5</ele>
        <time>2015-06-13T07:11:52Z</time>
      </trkpt>
      <trkpt lat="42.99688" lon="0.07737">
        <ele>1460.7</ele>
        <time>2015-06-13T07:12:04Z</time>
      </trkpt>
      <trkpt lat="42.99689" lon="0.07736">
        <ele>1460.8</ele>
        <time>2015-06-13T07:12:05Z</time>
      </trkpt>
      <trkpt lat="42.997" lon="0.0772">
        <ele>1466.1</ele>
        <time>2015-06-13T07:12:33Z</time>
      </trkpt>
      <trkpt lat="42.99703" lon="0.07709">
        <ele>1469.4</ele>
        <time>2015-06-13T07:12:48Z</time>
      </trkpt>
      <trkpt lat="42.99705" lon="0.07697">
        <ele>1473</ele>
        <time>2015-06-13T07:13:07Z</time>
      </trkpt>
      <trkpt lat="42.99704" lon="0.07696">
        <ele>1473.2</ele>
        <time>2015-06-13T07:13:08Z</time>
      </trkpt>
      <trkpt lat="42.99704" lon="0.07673">
        <ele>1480.4</ele>
        <time>2015-06-13T07:13:46Z</time>
      </trkpt>
      <trkpt lat="42.99702" lon="0.07662">
        <ele>1483.2</ele>
        <time>2015-06-13T07:14:02Z</time>
      </trkpt>
      <trkpt lat="42.99698" lon="0.07652">
        <ele>1484.8</ele>
        <time>2015-06-13T07:14:19Z</time>
      </trkpt>
      <trkpt lat="42.99698" lon="0.07651">
        <ele>1485.4</ele>
        <time>2015-06-13T07:14:21Z</time>
      </trkpt>
      <trkpt lat="42.99693" lon="0.0763">
        <ele>1491.3</ele>
        <time>2015-06-13T07:14:53Z</time>
      </trkpt>
      <trkpt lat="42.99691" lon="0.07618">
        <ele>1492.6</ele>
        <time>2015-06-13T07:15:08Z</time>
      </trkpt>
      <trkpt lat="42.99688" lon="0.07607">
        <ele>1495.6</ele>
        <time>2015-06-13T07:15:34Z</time>
      </trkpt>
      <trkpt lat="42.99687" lon="0.07606">
        <ele>1495.8</ele>
        <time>2015-06-13T07:15:35Z</time>
      </trkpt>
      <trkpt lat="42.99681" lon="0.07585">
        <ele>1503.1</ele>
        <time>2015-06-13T07:16:08Z</time>
      </trkpt>
      <trkpt lat="42.99678" lon="0.07573">
        <ele>1505.9</ele>
        <time>2015-06-13T07:16:25Z</time>
      </trkpt>
      <trkpt lat="42.99677" lon="0.07561">
        <ele>1509.9</ele>
        <time>2015-06-13T07:16:52Z</time>
      </trkpt>
      <trkpt lat="42.99677" lon="0.07561">
        <ele>1510.4</ele>
        <time>2015-06-13T07:16:53Z</time>
      </trkpt>
      <trkpt lat="42.99673" lon="0.07535">
        <ele>1517.7</ele>
        <time>2015-06-13T07:17:36Z</time>
      </trkpt>
      <trkpt lat="42.99674" lon="0.07524">
        <ele>1521</ele>
        <time>2015-06-13T07:17:54Z</time>
      </trkpt>
      <trkpt lat="42.99675" lon="0.07523">
        <ele>1521.2</ele>
        <time>2015-06-13T07:17:55Z</time>
      </trkpt>
      <trkpt lat="42.99678" lon="0.075">
        <ele>1526.1</ele>
        <time>2015-06-13T07:18:32Z</time>
      </trkpt>
      <trkpt lat="42.99676" lon="0.07489">
        <ele>1529.5</ele>
        <time>2015-06-13T07:18:49Z</time>
      </trkpt>
      <trkpt lat="42.99677" lon="0.07477">
        <ele>1533.7</ele>
        <time>2015-06-13T07:19:16Z</time>
      </trkpt>
      <trkpt lat="42.99677" lon="0.07476">
        <ele>1533.7</ele>
        <time>2015-06-13T07:19:17Z</time>
      </trkpt>
      <trkpt lat="42.99674" lon="0.07454">
        <ele>1543.1</ele>
        <time>2015-06-13T07:20:09Z</time>
      </trkpt>
      <trkpt lat="42.99674" lon="0.07441">
        <ele>1545.7</ele>
        <time>2015-06-13T07:20:27Z</time>
      </trkpt>
      <trkpt lat="42.99674" lon="0.0744">
        <ele>1546.1</ele>
        <time>2015-06-13T07:20:28Z</time>
      </trkpt>
      <trkpt lat="42.99666" lon="0.07421">
        <ele>1551</ele>
        <time>2015-06-13T07:20:53Z</time>
      </trkpt>
      <trkpt lat="42.99665" lon="0.07409">
        <ele>1553.3</ele>
        <time>2015-06-13T07:21:06Z</time>
      </trkpt>
      <trkpt lat="42.99663" lon="0.07397">
        <ele>1555.4</ele>
        <time>2015-06-13T07:21:17Z</time>
      </trkpt>
      <trkpt lat="42.99664" lon="0.07385">
        <ele>1556</ele>
        <time>2015-06-13T07:21:30Z</time>
      </trkpt>
      <trkpt lat="42.99664" lon="0.07384">
        <ele>1555.8</ele>
        <time>2015-06-13T07:21:31Z</time>
      </trkpt>
      <trkpt lat="42.99665" lon="0.07361">
        <ele>1560.9</ele>
        <time>2015-06-13T07:21:59Z</time>
      </trkpt>
      <trkpt lat="42.99666" lon="0.0735">
        <ele>1563</ele>
        <time>2015-06-13T07:22:12Z</time>
      </trkpt>
      <trkpt lat="42.99669" lon="0.07339">
        <ele>1564.8</ele>
        <time>2015-06-13T07:22:25Z</time>
      </trkpt>
      <trkpt lat="42.99665" lon="0.07328">
        <ele>1569.1</ele>
        <time>2015-06-13T07:22:43Z</time>
      </trkpt>
      <trkpt lat="42.99665" lon="0.07327">
        <ele>1569.3</ele>
        <time>2015-06-13T07:22:44Z</time>
      </trkpt>
      <trkpt lat="42.99658" lon="0.07306">
        <ele>1576.8</ele>
        <time>2015-06-13T07:23:49Z</time>
      </trkpt>
      <trkpt lat="42.99658" lon="0.07306">
        <ele>1577.1</ele>
        <time>2015-06-13T07:23:50Z</time>
      </trkpt>
      <trkpt lat="42.99651" lon="0.07285">
        <ele>1581.6</ele>
        <time>2015-06-13T07:24:16Z</time>
      </trkpt>
      <trkpt lat="42.9965" lon="0.07274">
        <ele>1583.3</ele>
        <time>2015-06-13T07:24:27Z</time>
      </trkpt>
      <trkpt lat="42.9965" lon="0.07262">
        <ele>1584.7</ele>
        <time>2015-06-13T07:24:38Z</time>
      </trkpt>
      <trkpt lat="42.99649" lon="0.0725">
        <ele>1588.5</ele>
        <time>2015-06-13T07:24:52Z</time>
      </trkpt>
      <trkpt lat="42.99649" lon="0.07249">
        <ele>1588.6</ele>
        <time>2015-06-13T07:24:53Z</time>
      </trkpt>
      <trkpt lat="42.99642" lon="0.07228">
        <ele>1591.7</ele>
        <time>2015-06-13T07:25:19Z</time>
      </trkpt>
      <trkpt lat="42.99642" lon="0.07216">
        <ele>1594.3</ele>
        <time>2015-06-13T07:25:34Z</time>
      </trkpt>
      <trkpt lat="42.99641" lon="0.07204">
        <ele>1596.7</ele>
        <time>2015-06-13T07:25:47Z</time>
      </trkpt>
      <trkpt lat="42.99641" lon="0.07193">
        <ele>1598.5</ele>
        <time>2015-06-13T07:25:57Z</time>
      </trkpt>
      <trkpt lat="42.99642" lon="0.07191">
        <ele>1598.7</ele>
        <time>2015-06-13T07:25:58Z</time>
      </trkpt>
      <trkpt lat="42.99637" lon="0.0717">
        <ele>1601.1</ele>
        <time>2015-06-13T07:26:18Z</time>
      </trkpt>
      <trkpt lat="42.9963" lon="0.07164">
        <ele>1603.8</ele>
        <time>2015-06-13T07:26:32Z</time>
      </trkpt>
      <trkpt lat="42.99622" lon="0.07159">
        <ele>1605.4</ele>
        <time>2015-06-13T07:26:45Z</time>
      </trkpt>
      <trkpt lat="42.99614" lon="0.07155">
        <ele>1607.7</ele>
        <time>2015-06-13T07:26:57Z</time>
      </trkpt>
      <trkpt lat="42.99605" lon="0.07154">
        <ele>1609</ele>
        <time>2015-06-13T07:27:25Z</time>
      </trkpt>
      <trkpt lat="42.99605" lon="0.07155">
        <ele>1609.2</ele>
        <time>2015-06-13T07:27:26Z</time>
      </trkpt>
      <trkpt lat="42.99595" lon="0.07137">
        <ele>1611.9</ele>
        <time>2015-06-13T07:28:06Z</time>
      </trkpt>
      <trkpt lat="42.99595" lon="0.07125">
        <ele>1613.6</ele>
        <time>2015-06-13T07:28:17Z</time>
      </trkpt>
      <trkpt lat="42.99593" lon="0.07113">
        <ele>1617.4</ele>
        <time>2015-06-13T07:28:30Z</time>
      </trkpt>
      <trkpt lat="42.99593" lon="0.07112">
        <ele>1617.6</ele>
        <time>2015-06-13T07:28:31Z</time>
      </trkpt>
      <trkpt lat="42.99579" lon="0.07101">
        <ele>1622.3</ele>
        <time>2015-06-13T07:28:58Z</time>
      </trkpt>
      <trkpt lat="42.99572" lon="0.07095">
        <ele>1625.8</ele>
        <time>2015-06-13T07:29:16Z</time>
      </trkpt>
      <trkpt lat="42.99566" lon="0.07087">
        <ele>1630.2</ele>
        <time>2015-06-13T07:29:37Z</time>
      </trkpt>
      <trkpt lat="42.99565" lon="0.07087">
        <ele>1630.3</ele>
        <time>2015-06-13T07:29:38Z</time>
      </trkpt>
      <trkpt lat="42.99559" lon="0.07068">
        <ele>1636.1</ele>
        <time>2015-06-13T07:30:11Z</time>
      </trkpt>
      <trkpt lat="42.99556" lon="0.07057">
        <ele>1640.5</ele>
        <time>2015-06-13T07:30:30Z</time>
      </trkpt>
      <trkpt lat="42.99558" lon="0.07045">
        <ele>1642.9</ele>
        <time>2015-06-13T07:30:50Z</time>
      </trkpt>
      <trkpt lat="42.99558" lon="0.07044">
        <ele>1643</ele>
        <time>2015-06-13T07:30:51Z</time>
      </trkpt>
      <trkpt lat="42.99558" lon="0.07022">
        <ele>1651.4</ele>
        <time>2015-06-13T07:31:33Z</time>
      </trkpt>
      <trkpt lat="42.99551" lon="0.07015">
        <ele>1654.5</ele>
        <time>2015-06-13T07:31:47Z</time>
      </trkpt>
      <trkpt lat="42.9955" lon="0.07004">
        <ele>1658.7</ele>
        <time>2015-06-13T07:32:08Z</time>
      </trkpt>
      <trkpt lat="42.99551" lon="0.07003">
        <ele>1658.8</ele>
        <time>2015-06-13T07:32:09Z</time>
      </trkpt>
      <trkpt lat="42.9955" lon="0.06982">
        <ele>1666.6</ele>
        <time>2015-06-13T07:32:49Z</time>
      </trkpt>
      <trkpt lat="42.99554" lon="0.06971">
        <ele>1670.1</ele>
        <time>2015-06-13T07:33:05Z</time>
      </trkpt>
      <trkpt lat="42.99558" lon="0.0696">
        <ele>1672.2</ele>
        <time>2015-06-13T07:33:22Z</time>
      </trkpt>
      <trkpt lat="42.99558" lon="0.0696">
        <ele>1672.4</ele>
        <time>2015-06-13T07:33:23Z</time>
      </trkpt>
      <trkpt lat="42.99554" lon="0.06937">
        <ele>1681.4</ele>
        <time>2015-06-13T07:34:02Z</time>
      </trkpt>
      <trkpt lat="42.99548" lon="0.06927">
        <ele>1684.5</ele>
        <time>2015-06-13T07:34:22Z</time>
      </trkpt>
      <trkpt lat="42.99547" lon="0.06915">
        <ele>1688.1</ele>
        <time>2015-06-13T07:34:39Z</time>
      </trkpt>
      <trkpt lat="42.99547" lon="0.06915">
        <ele>1688.2</ele>
        <time>2015-06-13T07:34:40Z</time>
      </trkpt>
      <trkpt lat="42.99543" lon="0.06892">
        <ele>1694.6</ele>
        <time>2015-06-13T07:35:15Z</time>
      </trkpt>
      <trkpt lat="42.9954" lon="0.06881">
        <ele>1698.3</ele>
        <time>2015-06-13T07:35:32Z</time>
      </trkpt>
      <trkpt lat="42.99539" lon="0.06869">
        <ele>1701.1</ele>
        <time>2015-06-13T07:35:48Z</time>
      </trkpt>
      <trkpt lat="42.99539" lon="0.06868">
        <ele>1701.1</ele>
        <time>2015-06-13T07:35:49Z</time>
      </trkpt>
      <trkpt lat="42.99529" lon="0.0685">
        <ele>1708.4</ele>
        <time>2015-06-13T07:37:01Z</time>
      </trkpt>
      <trkpt lat="42.99529" lon="0.0685">
        <ele>1708.3</ele>
        <time>2015-06-13T07:37:02Z</time>
      </trkpt>
      <trkpt lat="42.99529" lon="0.06827">
        <ele>1716.5</ele>
        <time>2015-06-13T07:37:41Z</time>
      </trkpt>
      <trkpt lat="42.99527" lon="0.06816">
        <ele>1720.4</ele>
        <time>2015-06-13T07:37:59Z</time>
      </trkpt>
      <trkpt lat="42.99524" lon="0.06804">
        <ele>1724.9</ele>
        <time>2015-06-13T07:38:22Z</time>
      </trkpt>
      <trkpt lat="42.99524" lon="0.06804">
        <ele>1724.7</ele>
        <time>2015-06-13T07:38:23Z</time>
      </trkpt>
      <trkpt lat="42.99521" lon="0.0678">
        <ele>1736.2</ele>
        <time>2015-06-13T07:39:20Z</time>
      </trkpt>
      <trkpt lat="42.99516" lon="0.0677">
        <ele>1739.4</ele>
        <time>2015-06-13T07:39:44Z</time>
      </trkpt>
      <trkpt lat="42.99516" lon="0.06769">
        <ele>1739.5</ele>
        <time>2015-06-13T07:39:45Z</time>
      </trkpt>
      <trkpt lat="42.99512" lon="0.06748">
        <ele>1746.2</ele>
        <time>2015-06-13T07:40:17Z</time>
      </trkpt>
      <trkpt lat="42.99514" lon="0.06737">
        <ele>1750.8</ele>
        <time>2015-06-13T07:41:12Z</time>
      </trkpt>
      <trkpt lat="42.99514" lon="0.06736">
        <ele>1751</ele>
        <time>2015-06-13T07:41:13Z</time>
      </trkpt>
      <trkpt lat="42.99503" lon="0.0672">
        <ele>1758.5</ele>
        <time>2015-06-13T07:41:58Z</time>
      </trkpt>
      <trkpt lat="42.99503" lon="0.06707">
        <ele>1761.3</ele>
        <time>2015-06-13T07:42:28Z</time>
      </trkpt>
      <trkpt lat="42.99504" lon="0.06707">
        <ele>1761.9</ele>
        <time>2015-06-13T07:42:29Z</time>
      </trkpt>
      <trkpt lat="42.99502" lon="0.06686">
        <ele>1768.8</ele>
        <time>2015-06-13T07:43:10Z</time>
      </trkpt>
      <trkpt lat="42.99498" lon="0.06675">
        <ele>1772.9</ele>
        <time>2015-06-13T07:43:33Z</time>
      </trkpt>
      <trkpt lat="42.99497" lon="0.06675">
        <ele>1773</ele>
        <time>2015-06-13T07:43:34Z</time>
      </trkpt>
      <trkpt lat="42.99488" lon="0.06658">
        <ele>1783.7</ele>
        <time>2015-06-13T07:44:23Z</time>
      </trkpt>
      <trkpt lat="42.9949" lon="0.06647">
        <ele>1787.9</ele>
        <time>2015-06-13T07:44:52Z</time>
      </trkpt>
      <trkpt lat="42.99491" lon="0.06646">
        <ele>1787.9</ele>
        <time>2015-06-13T07:44:53Z</time>
      </trkpt>
      <trkpt lat="42.99491" lon="0.06624">
        <ele>1794.7</ele>
        <time>2015-06-13T07:45:35Z</time>
      </trkpt>
      <trkpt lat="42.99482" lon="0.06625">
        <ele>1797</ele>
        <time>2015-06-13T07:46:01Z</time>
      </trkpt>
      <trkpt lat="42.99482" lon="0.06625">
        <ele>1797.1</ele>
        <time>2015-06-13T07:46:02Z</time>
      </trkpt>
      <trkpt lat="42.99465" lon="0.06619">
        <ele>1803.5</ele>
        <time>2015-06-13T07:46:52Z</time>
      </trkpt>
      <trkpt lat="42.99457" lon="0.06626">
        <ele>1808.7</ele>
        <time>2015-06-13T07:47:19Z</time>
      </trkpt>
      <trkpt lat="42.99457" lon="0.06627">
        <ele>1808.7</ele>
        <time>2015-06-13T07:47:20Z</time>
      </trkpt>
      <trkpt lat="42.99447" lon="0.06646">
        <ele>1816.4</ele>
        <time>2015-06-13T07:48:21Z</time>
      </trkpt>
      <trkpt lat="42.99447" lon="0.06646">
        <ele>1816.4</ele>
        <time>2015-06-13T07:48:22Z</time>
      </trkpt>
      <trkpt lat="42.99431" lon="0.06645">
        <ele>1824.3</ele>
        <time>2015-06-13T07:49:26Z</time>
      </trkpt>
      <trkpt lat="42.9943" lon="0.06645">
        <ele>1824.6</ele>
        <time>2015-06-13T07:49:27Z</time>
      </trkpt>
      <trkpt lat="42.99419" lon="0.06658">
        <ele>1834.2</ele>
        <time>2015-06-13T07:50:40Z</time>
      </trkpt>
      <trkpt lat="42.99418" lon="0.06657">
        <ele>1834.2</ele>
        <time>2015-06-13T07:50:41Z</time>
      </trkpt>
      <trkpt lat="42.99402" lon="0.06663">
        <ele>1846.9</ele>
        <time>2015-06-13T07:51:54Z</time>
      </trkpt>
      <trkpt lat="42.99402" lon="0.06663">
        <ele>1846.9</ele>
        <time>2015-06-13T07:51:55Z</time>
      </trkpt>
      <trkpt lat="42.99385" lon="0.06663">
        <ele>1853.1</ele>
        <time>2015-06-13T07:52:43Z</time>
      </trkpt>
      <trkpt lat="42.99376" lon="0.06663">
        <ele>1858.1</ele>
        <time>2015-06-13T07:53:09Z</time>
      </trkpt>
      <trkpt lat="42.99375" lon="0.06663">
        <ele>1858.3</ele>
        <time>2015-06-13T07:53:10Z</time>
      </trkpt>
      <trkpt lat="42.99359" lon="0.06665">
        <ele>1870</ele>
        <time>2015-06-13T07:54:13Z</time>
      </trkpt>
      <trkpt lat="42.99358" lon="0.06665">
        <ele>1869.6</ele>
        <time>2015-06-13T07:54:14Z</time>
      </trkpt>
      <trkpt lat="42.99342" lon="0.0667">
        <ele>1876.7</ele>
        <time>2015-06-13T07:55:11Z</time>
      </trkpt>
      <trkpt lat="42.99334" lon="0.06672">
        <ele>1882.4</ele>
        <time>2015-06-13T07:55:34Z</time>
      </trkpt>
      <trkpt lat="42.99333" lon="0.06672">
        <ele>1882.8</ele>
        <time>2015-06-13T07:55:35Z</time>
      </trkpt>
      <trkpt lat="42.99318" lon="0.06683">
        <ele>1892.3</ele>
        <time>2015-06-13T07:56:47Z</time>
      </trkpt>
      <trkpt lat="42.99318" lon="0.06684">
        <ele>1892.5</ele>
        <time>2015-06-13T07:56:48Z</time>
      </trkpt>
      <trkpt lat="42.99301" lon="0.06686">
        <ele>1901.1</ele>
        <time>2015-06-13T07:57:47Z</time>
      </trkpt>
      <trkpt lat="42.99294" lon="0.06693">
        <ele>1906</ele>
        <time>2015-06-13T07:58:07Z</time>
      </trkpt>
      <trkpt lat="42.99294" lon="0.06694">
        <ele>1906.3</ele>
        <time>2015-06-13T07:58:08Z</time>
      </trkpt>
      <trkpt lat="42.99278" lon="0.067">
        <ele>1914.9</ele>
        <time>2015-06-13T07:58:54Z</time>
      </trkpt>
      <trkpt lat="42.99269" lon="0.067">
        <ele>1918.9</ele>
        <time>2015-06-13T07:59:17Z</time>
      </trkpt>
      <trkpt lat="42.99269" lon="0.06699">
        <ele>1919</ele>
        <time>2015-06-13T07:59:18Z</time>
      </trkpt>
      <trkpt lat="42.99252" lon="0.06698">
        <ele>1926.4</ele>
        <time>2015-06-13T08:00:10Z</time>
      </trkpt>
      <trkpt lat="42.99243" lon="0.06696">
        <ele>1929.6</ele>
        <time>2015-06-13T08:00:27Z</time>
      </trkpt>
      <trkpt lat="42.99243" lon="0.06696">
        <ele>1929.9</ele>
        <time>2015-06-13T08:00:28Z</time>
      </trkpt>
      <trkpt lat="42.99226" lon="0.06701">
        <ele>1937.5</ele>
        <time>2015-06-13T08:01:04Z</time>
      </trkpt>
      <trkpt lat="42.99218" lon="0.06698">
        <ele>1941.5</ele>
        <time>2015-06-13T08:01:22Z</time>
      </trkpt>
      <trkpt lat="42.9921" lon="0.06696">
        <ele>1942.8</ele>
        <time>2015-06-13T08:01:35Z</time>
      </trkpt>
      <trkpt lat="42.99209" lon="0.06697">
        <ele>1942.9</ele>
        <time>2015-06-13T08:01:36Z</time>
      </trkpt>
      <trkpt lat="42.99193" lon="0.06694">
        <ele>1948.5</ele>
        <time>2015-06-13T08:02:10Z</time>
      </trkpt>
      <trkpt lat="42.99185" lon="0.06691">
        <ele>1950.5</ele>
        <time>2015-06-13T08:02:22Z</time>
      </trkpt>
      <trkpt lat="42.99177" lon="0.06689">
        <ele>1952.8</ele>
        <time>2015-06-13T08:02:37Z</time>
      </trkpt>
      <trkpt lat="42.99176" lon="0.06688">
        <ele>1953.2</ele>
        <time>2015-06-13T08:02:38Z</time>
      </trkpt>
      <trkpt lat="42.99161" lon="0.06687">
        <ele>1957.6</ele>
        <time>2015-06-13T08:03:03Z</time>
      </trkpt>
      <trkpt lat="42.99158" lon="0.06697">
        <ele>1960.1</ele>
        <time>2015-06-13T08:03:14Z</time>
      </trkpt>
      <trkpt lat="42.99155" lon="0.06709">
        <ele>1961.7</ele>
        <time>2015-06-13T08:03:26Z</time>
      </trkpt>
      <trkpt lat="42.99151" lon="0.0672">
        <ele>1964.9</ele>
        <time>2015-06-13T08:03:39Z</time>
      </trkpt>
      <trkpt lat="42.9915" lon="0.06721">
        <ele>1965</ele>
        <time>2015-06-13T08:03:40Z</time>
      </trkpt>
      <trkpt lat="42.99139" lon="0.06738">
        <ele>1967</ele>
        <time>2015-06-13T08:04:01Z</time>
      </trkpt>
      <trkpt lat="42.99132" lon="0.06744">
        <ele>1968.8</ele>
        <time>2015-06-13T08:04:13Z</time>
      </trkpt>
      <trkpt lat="42.99123" lon="0.06746">
        <ele>1971.6</ele>
        <time>2015-06-13T08:04:25Z</time>
      </trkpt>
      <trkpt lat="42.9912" lon="0.06734">
        <ele>1973</ele>
        <time>2015-06-13T08:05:52Z</time>
      </trkpt>
      <trkpt lat="42.99119" lon="0.06734">
        <ele>1973.5</ele>
        <time>2015-06-13T08:05:53Z</time>
      </trkpt>
      <trkpt lat="42.99103" lon="0.06736">
        <ele>1976.9</ele>
        <time>2015-06-13T08:06:24Z</time>
      </trkpt>
      <trkpt lat="42.99094" lon="0.06741">
        <ele>1978.8</ele>
        <time>2015-06-13T08:06:36Z</time>
      </trkpt>
      <trkpt lat="42.99086" lon="0.06736">
        <ele>1982</ele>
        <time>2015-06-13T08:06:54Z</time>
      </trkpt>
      <trkpt lat="42.99085" lon="0.06736">
        <ele>1982.2</ele>
        <time>2015-06-13T08:06:55Z</time>
      </trkpt>
      <trkpt lat="42.99077" lon="0.06717">
        <ele>1984.8</ele>
        <time>2015-06-13T08:07:42Z</time>
      </trkpt>
      <trkpt lat="42.99075" lon="0.06705">
        <ele>1985.4</ele>
        <time>2015-06-13T08:07:56Z</time>
      </trkpt>
      <trkpt lat="42.99074" lon="0.06704">
        <ele>1985.5</ele>
        <time>2015-06-13T08:07:57Z</time>
      </trkpt>
      <trkpt lat="42.99067" lon="0.06685">
        <ele>1986.7</ele>
        <time>2015-06-13T08:08:14Z</time>
      </trkpt>
      <trkpt lat="42.99065" lon="0.06674">
        <ele>1987.3</ele>
        <time>2015-06-13T08:08:23Z</time>
      </trkpt>
      <trkpt lat="42.99064" lon="0.06663">
        <ele>1989.2</ele>
        <time>2015-06-13T08:08:33Z</time>
      </trkpt>
      <trkpt lat="42.99062" lon="0.06651">
        <ele>1992.1</ele>
        <time>2015-06-13T08:08:48Z</time>
      </trkpt>
      <trkpt lat="42.99058" lon="0.0664">
        <ele>1994.8</ele>
        <time>2015-06-13T08:09:02Z</time>
      </trkpt>
      <trkpt lat="42.99058" lon="0.0664">
        <ele>1995.2</ele>
        <time>2015-06-13T08:09:03Z</time>
      </trkpt>
      <trkpt lat="42.99056" lon="0.06617">
        <ele>1998.8</ele>
        <time>2015-06-13T08:09:39Z</time>
      </trkpt>
      <trkpt lat="42.99052" lon="0.06606">
        <ele>2001.3</ele>
        <time>2015-06-13T08:10:02Z</time>
      </trkpt>
      <trkpt lat="42.99051" lon="0.06594">
        <ele>2003.4</ele>
        <time>2015-06-13T08:10:25Z</time>
      </trkpt>
      <trkpt lat="42.99051" lon="0.06593">
        <ele>2003.5</ele>
        <time>2015-06-13T08:10:26Z</time>
      </trkpt>
      <trkpt lat="42.99043" lon="0.06573">
        <ele>2011.5</ele>
        <time>2015-06-13T08:11:00Z</time>
      </trkpt>
      <trkpt lat="42.99037" lon="0.06565">
        <ele>2016.1</ele>
        <time>2015-06-13T08:11:45Z</time>
      </trkpt>
      <trkpt lat="42.99037" lon="0.06564">
        <ele>2016.3</ele>
        <time>2015-06-13T08:11:46Z</time>
      </trkpt>
      <trkpt lat="42.9902" lon="0.06559">
        <ele>2026.5</ele>
        <time>2015-06-13T08:12:32Z</time>
      </trkpt>
      <trkpt lat="42.99015" lon="0.0655">
        <ele>2030.9</ele>
        <time>2015-06-13T08:12:51Z</time>
      </trkpt>
      <trkpt lat="42.99014" lon="0.0655">
        <ele>2031</ele>
        <time>2015-06-13T08:12:52Z</time>
      </trkpt>
      <trkpt lat="42.99008" lon="0.06528">
        <ele>2038.2</ele>
        <time>2015-06-13T08:13:33Z</time>
      </trkpt>
      <trkpt lat="42.99008" lon="0.06516">
        <ele>2044.7</ele>
        <time>2015-06-13T08:13:59Z</time>
      </trkpt>
      <trkpt lat="42.99008" lon="0.06516">
        <ele>2044.9</ele>
        <time>2015-06-13T08:14:00Z</time>
      </trkpt>
      <trkpt lat="42.98997" lon="0.06505">
        <ele>2052.7</ele>
        <time>2015-06-13T08:14:56Z</time>
      </trkpt>
      <trkpt lat="42.98989" lon="0.06508">
        <ele>2055.2</ele>
        <time>2015-06-13T08:15:06Z</time>
      </trkpt>
      <trkpt lat="42.98988" lon="0.06508">
        <ele>2055.2</ele>
        <time>2015-06-13T08:15:07Z</time>
      </trkpt>
      <trkpt lat="42.98973" lon="0.06514">
        <ele>2055.1</ele>
        <time>2015-06-13T08:15:31Z</time>
      </trkpt>
      <trkpt lat="42.98966" lon="0.06522">
        <ele>2057.2</ele>
        <time>2015-06-13T08:15:48Z</time>
      </trkpt>
      <trkpt lat="42.98959" lon="0.06529">
        <ele>2060.8</ele>
        <time>2015-06-13T08:16:40Z</time>
      </trkpt>
      <trkpt lat="42.98958" lon="0.0653">
        <ele>2060.8</ele>
        <time>2015-06-13T08:16:41Z</time>
      </trkpt>
      <trkpt lat="42.98947" lon="0.06545">
        <ele>2062.2</ele>
        <time>2015-06-13T08:17:01Z</time>
      </trkpt>
      <trkpt lat="42.98944" lon="0.06555">
        <ele>2064.1</ele>
        <time>2015-06-13T08:17:14Z</time>
      </trkpt>
      <trkpt lat="42.98936" lon="0.06562">
        <ele>2066.5</ele>
        <time>2015-06-13T08:17:24Z</time>
      </trkpt>
      <trkpt lat="42.98929" lon="0.06568">
        <ele>2067.4</ele>
        <time>2015-06-13T08:17:33Z</time>
      </trkpt>
      <trkpt lat="42.98921" lon="0.06573">
        <ele>2067.6</ele>
        <time>2015-06-13T08:17:43Z</time>
      </trkpt>
      <trkpt lat="42.98921" lon="0.06573">
        <ele>2067.4</ele>
        <time>2015-06-13T08:17:44Z</time>
      </trkpt>
      <trkpt lat="42.98907" lon="0.06584">
        <ele>2069.2</ele>
        <time>2015-06-13T08:18:02Z</time>
      </trkpt>
      <trkpt lat="42.989" lon="0.06589">
        <ele>2069.3</ele>
        <time>2015-06-13T08:18:09Z</time>
      </trkpt>
      <trkpt lat="42.98893" lon="0.06594">
        <ele>2068.7</ele>
        <time>2015-06-13T08:18:16Z</time>
      </trkpt>
      <trkpt lat="42.98887" lon="0.06602">
        <ele>2070.7</ele>
        <time>2015-06-13T08:18:24Z</time>
      </trkpt>
      <trkpt lat="42.98881" lon="0.0661">
        <ele>2071.6</ele>
        <time>2015-06-13T08:18:32Z</time>
      </trkpt>
      <trkpt lat="42.98874" lon="0.06617">
        <ele>2073.7</ele>
        <time>2015-06-13T08:18:41Z</time>
      </trkpt>
      <trkpt lat="42.98867" lon="0.06624">
        <ele>2075.6</ele>
        <time>2015-06-13T08:18:53Z</time>
      </trkpt>
      <trkpt lat="42.98867" lon="0.06625">
        <ele>2076</ele>
        <time>2015-06-13T08:18:54Z</time>
      </trkpt>
      <trkpt lat="42.98854" lon="0.0664">
        <ele>2082.9</ele>
        <time>2015-06-13T08:19:22Z</time>
      </trkpt>
      <trkpt lat="42.98848" lon="0.06648">
        <ele>2087.3</ele>
        <time>2015-06-13T08:19:38Z</time>
      </trkpt>
      <trkpt lat="42.9884" lon="0.06648">
        <ele>2088.6</ele>
        <time>2015-06-13T08:19:52Z</time>
      </trkpt>
      <trkpt lat="42.98834" lon="0.06657">
        <ele>2093.5</ele>
        <time>2015-06-13T08:20:15Z</time>
      </trkpt>
      <trkpt lat="42.98834" lon="0.06658">
        <ele>2093.7</ele>
        <time>2015-06-13T08:20:16Z</time>
      </trkpt>
      <trkpt lat="42.98819" lon="0.06668">
        <ele>2101.2</ele>
        <time>2015-06-13T08:21:21Z</time>
      </trkpt>
      <trkpt lat="42.98819" lon="0.06667">
        <ele>2101.9</ele>
        <time>2015-06-13T08:21:22Z</time>
      </trkpt>
      <trkpt lat="42.98808" lon="0.06681">
        <ele>2111.8</ele>
        <time>2015-06-13T08:22:10Z</time>
      </trkpt>
      <trkpt lat="42.98804" lon="0.06692">
        <ele>2117.5</ele>
        <time>2015-06-13T08:22:57Z</time>
      </trkpt>
      <trkpt lat="42.98804" lon="0.06692">
        <ele>2117.8</ele>
        <time>2015-06-13T08:22:58Z</time>
      </trkpt>
      <trkpt lat="42.98787" lon="0.067">
        <ele>2127.4</ele>
        <time>2015-06-13T08:23:49Z</time>
      </trkpt>
      <trkpt lat="42.98779" lon="0.06701">
        <ele>2134.9</ele>
        <time>2015-06-13T08:24:52Z</time>
      </trkpt>
      <trkpt lat="42.98778" lon="0.06701">
        <ele>2134.5</ele>
        <time>2015-06-13T08:24:53Z</time>
      </trkpt>
      <trkpt lat="42.98762" lon="0.06695">
        <ele>2136.4</ele>
        <time>2015-06-13T08:25:43Z</time>
      </trkpt>
      <trkpt lat="42.98754" lon="0.06692">
        <ele>2135.6</ele>
        <time>2015-06-13T08:25:54Z</time>
      </trkpt>
      <trkpt lat="42.98753" lon="0.06692">
        <ele>2135.4</ele>
        <time>2015-06-13T08:25:55Z</time>
      </trkpt>
      <trkpt lat="42.98738" lon="0.06701">
        <ele>2137</ele>
        <time>2015-06-13T08:26:16Z</time>
      </trkpt>
      <trkpt lat="42.9873" lon="0.06707">
        <ele>2138.4</ele>
        <time>2015-06-13T08:26:32Z</time>
      </trkpt>
      <trkpt lat="42.98722" lon="0.06712">
        <ele>2140.2</ele>
        <time>2015-06-13T08:26:53Z</time>
      </trkpt>
      <trkpt lat="42.98714" lon="0.06716">
        <ele>2141.1</ele>
        <time>2015-06-13T08:27:04Z</time>
      </trkpt>
      <trkpt lat="42.98713" lon="0.06716">
        <ele>2141</ele>
        <time>2015-06-13T08:27:05Z</time>
      </trkpt>
      <trkpt lat="42.98698" lon="0.06724">
        <ele>2143.7</ele>
        <time>2015-06-13T08:27:25Z</time>
      </trkpt>
      <trkpt lat="42.9869" lon="0.06727">
        <ele>2144.8</ele>
        <time>2015-06-13T08:27:34Z</time>
      </trkpt>
      <trkpt lat="42.98682" lon="0.06729">
        <ele>2144.9</ele>
        <time>2015-06-13T08:27:43Z</time>
      </trkpt>
      <trkpt lat="42.98675" lon="0.06735">
        <ele>2146.9</ele>
        <time>2015-06-13T08:27:54Z</time>
      </trkpt>
      <trkpt lat="42.98667" lon="0.06742">
        <ele>2147.4</ele>
        <time>2015-06-13T08:28:23Z</time>
      </trkpt>
      <trkpt lat="42.98667" lon="0.06742">
        <ele>2147.5</ele>
        <time>2015-06-13T08:28:24Z</time>
      </trkpt>
      <trkpt lat="42.98651" lon="0.06749">
        <ele>2150</ele>
        <time>2015-06-13T08:28:56Z</time>
      </trkpt>
      <trkpt lat="42.98642" lon="0.06749">
        <ele>2151.7</ele>
        <time>2015-06-13T08:29:07Z</time>
      </trkpt>
      <trkpt lat="42.98634" lon="0.06752">
        <ele>2153.9</ele>
        <time>2015-06-13T08:29:22Z</time>
      </trkpt>
      <trkpt lat="42.98625" lon="0.06753">
        <ele>2157</ele>
        <time>2015-06-13T08:29:39Z</time>
      </trkpt>
      <trkpt lat="42.98625" lon="0.06753">
        <ele>2157.1</ele>
        <time>2015-06-13T08:29:40Z</time>
      </trkpt>
      <trkpt lat="42.9861" lon="0.0676">
        <ele>2166.7</ele>
        <time>2015-06-13T08:30:21Z</time>
      </trkpt>
      <trkpt lat="42.98604" lon="0.06769">
        <ele>2172.9</ele>
        <time>2015-06-13T08:31:12Z</time>
      </trkpt>
      <trkpt lat="42.98604" lon="0.06769">
        <ele>2172.8</ele>
        <time>2015-06-13T08:31:13Z</time>
      </trkpt>
      <trkpt lat="42.98587" lon="0.06767">
        <ele>2179.1</ele>
        <time>2015-06-13T08:31:52Z</time>
      </trkpt>
      <trkpt lat="42.98583" lon="0.06778">
        <ele>2185.3</ele>
        <time>2015-06-13T08:32:24Z</time>
      </trkpt>
      <trkpt lat="42.98582" lon="0.06779">
        <ele>2185.4</ele>
        <time>2015-06-13T08:32:25Z</time>
      </trkpt>
      <trkpt lat="42.9857" lon="0.06795">
        <ele>2195.1</ele>
        <time>2015-06-13T08:34:15Z</time>
      </trkpt>
      <trkpt lat="42.9857" lon="0.06795">
        <ele>2195.4</ele>
        <time>2015-06-13T08:34:16Z</time>
      </trkpt>
      <trkpt lat="42.98557" lon="0.06812">
        <ele>2209.5</ele>
        <time>2015-06-13T08:35:47Z</time>
      </trkpt>
      <trkpt lat="42.98557" lon="0.06812">
        <ele>2209.7</ele>
        <time>2015-06-13T08:35:48Z</time>
      </trkpt>
      <trkpt lat="42.9854" lon="0.06815">
        <ele>2216.7</ele>
        <time>2015-06-13T08:36:36Z</time>
      </trkpt>
      <trkpt lat="42.98531" lon="0.06815">
        <ele>2218.8</ele>
        <time>2015-06-13T08:36:56Z</time>
      </trkpt>
      <trkpt lat="42.98531" lon="0.06815">
        <ele>2219.4</ele>
        <time>2015-06-13T08:36:57Z</time>
      </trkpt>
      <trkpt lat="42.98514" lon="0.06819">
        <ele>2223.4</ele>
        <time>2015-06-13T08:37:48Z</time>
      </trkpt>
      <trkpt lat="42.98506" lon="0.06819">
        <ele>2225.6</ele>
        <time>2015-06-13T08:38:01Z</time>
      </trkpt>
      <trkpt lat="42.98505" lon="0.06818">
        <ele>2225.7</ele>
        <time>2015-06-13T08:38:02Z</time>
      </trkpt>
      <trkpt lat="42.98488" lon="0.06817">
        <ele>2232.2</ele>
        <time>2015-06-13T08:38:49Z</time>
      </trkpt>
      <trkpt lat="42.9848" lon="0.06822">
        <ele>2238.2</ele>
        <time>2015-06-13T08:39:26Z</time>
      </trkpt>
      <trkpt lat="42.9848" lon="0.06822">
        <ele>2238.5</ele>
        <time>2015-06-13T08:39:27Z</time>
      </trkpt>
      <trkpt lat="42.98463" lon="0.06823">
        <ele>2247.5</ele>
        <time>2015-06-13T08:40:17Z</time>
      </trkpt>
      <trkpt lat="42.98454" lon="0.06825">
        <ele>2252.7</ele>
        <time>2015-06-13T08:40:43Z</time>
      </trkpt>
      <trkpt lat="42.98453" lon="0.06826">
        <ele>2252.9</ele>
        <time>2015-06-13T08:40:44Z</time>
      </trkpt>
      <trkpt lat="42.98448" lon="0.0684">
        <ele>2260.2</ele>
        <time>2015-06-13T08:41:40Z</time>
      </trkpt>
      <trkpt lat="42.98439" lon="0.06844">
        <ele>2263</ele>
        <time>2015-06-13T08:41:57Z</time>
      </trkpt>
      <trkpt lat="42.98439" lon="0.06844">
        <ele>2263.1</ele>
        <time>2015-06-13T08:41:58Z</time>
      </trkpt>
      <trkpt lat="42.98424" lon="0.06851">
        <ele>2272.6</ele>
        <time>2015-06-13T08:43:41Z</time>
      </trkpt>
      <trkpt lat="42.98423" lon="0.06851">
        <ele>2272.9</ele>
        <time>2015-06-13T08:43:42Z</time>
      </trkpt>
      <trkpt lat="42.98407" lon="0.06853">
        <ele>2279.7</ele>
        <time>2015-06-13T08:44:33Z</time>
      </trkpt>
      <trkpt lat="42.98398" lon="0.0685">
        <ele>2284.5</ele>
        <time>2015-06-13T08:44:50Z</time>
      </trkpt>
      <trkpt lat="42.98398" lon="0.0685">
        <ele>2284.7</ele>
        <time>2015-06-13T08:44:51Z</time>
      </trkpt>
      <trkpt lat="42.98381" lon="0.06848">
        <ele>2291.7</ele>
        <time>2015-06-13T08:45:43Z</time>
      </trkpt>
      <trkpt lat="42.98373" lon="0.06849">
        <ele>2293.5</ele>
        <time>2015-06-13T08:45:58Z</time>
      </trkpt>
      <trkpt lat="42.98372" lon="0.06849">
        <ele>2293.7</ele>
        <time>2015-06-13T08:45:59Z</time>
      </trkpt>
      <trkpt lat="42.98357" lon="0.06857">
        <ele>2297.9</ele>
        <time>2015-06-13T08:46:29Z</time>
      </trkpt>
      <trkpt lat="42.98353" lon="0.06868">
        <ele>2306.2</ele>
        <time>2015-06-13T08:47:19Z</time>
      </trkpt>
      <trkpt lat="42.98352" lon="0.06868">
        <ele>2306</ele>
        <time>2015-06-13T08:47:20Z</time>
      </trkpt>
      <trkpt lat="42.98368" lon="0.06879">
        <ele>2310.6</ele>
        <time>2015-06-13T08:48:40Z</time>
      </trkpt>
      <trkpt lat="42.98368" lon="0.06879">
        <ele>2310.5</ele>
        <time>2015-06-13T08:48:41Z</time>
      </trkpt>
      <trkpt lat="42.98376" lon="0.06883">
        <ele>2337.1</ele>
        <time>2015-06-13T08:51:10Z</time>
      </trkpt>
      <trkpt lat="42.98368" lon="0.06878">
        <ele>2335.7</ele>
        <time>2015-06-13T09:02:51Z</time>
      </trkpt>
      <trkpt lat="42.98351" lon="0.06874">
        <ele>2332.9</ele>
        <time>2015-06-13T09:03:10Z</time>
      </trkpt>
      <trkpt lat="42.98343" lon="0.06871">
        <ele>2329.9</ele>
        <time>2015-06-13T09:03:29Z</time>
      </trkpt>
      <trkpt lat="42.98346" lon="0.06859">
        <ele>2326.7</ele>
        <time>2015-06-13T09:15:23Z</time>
      </trkpt>
      <trkpt lat="42.98346" lon="0.06859">
        <ele>2326.7</ele>
        <time>2015-06-13T09:15:24Z</time>
      </trkpt>
      <trkpt lat="42.98361" lon="0.06852">
        <ele>2321.3</ele>
        <time>2015-06-13T09:15:50Z</time>
      </trkpt>
      <trkpt lat="42.98369" lon="0.06846">
        <ele>2318.4</ele>
        <time>2015-06-13T09:16:10Z</time>
      </trkpt>
      <trkpt lat="42.98378" lon="0.06847">
        <ele>2316.2</ele>
        <time>2015-06-13T09:16:28Z</time>
      </trkpt>
      <trkpt lat="42.98378" lon="0.06847">
        <ele>2316.4</ele>
        <time>2015-06-13T09:16:29Z</time>
      </trkpt>
      <trkpt lat="42.98395" lon="0.06848">
        <ele>2309.7</ele>
        <time>2015-06-13T09:17:06Z</time>
      </trkpt>
      <trkpt lat="42.98404" lon="0.06849">
        <ele>2305.9</ele>
        <time>2015-06-13T09:17:24Z</time>
      </trkpt>
      <trkpt lat="42.98412" lon="0.06849">
        <ele>2301.9</ele>
        <time>2015-06-13T09:17:47Z</time>
      </trkpt>
      <trkpt lat="42.98413" lon="0.06849">
        <ele>2301.7</ele>
        <time>2015-06-13T09:17:48Z</time>
      </trkpt>
      <trkpt lat="42.98429" lon="0.06848">
        <ele>2293</ele>
        <time>2015-06-13T09:18:32Z</time>
      </trkpt>
      <trkpt lat="42.98437" lon="0.06845">
        <ele>2290.2</ele>
        <time>2015-06-13T09:18:46Z</time>
      </trkpt>
      <trkpt lat="42.98445" lon="0.0684">
        <ele>2285.2</ele>
        <time>2015-06-13T09:19:04Z</time>
      </trkpt>
      <trkpt lat="42.98446" lon="0.0684">
        <ele>2285.3</ele>
        <time>2015-06-13T09:19:05Z</time>
      </trkpt>
      <trkpt lat="42.98457" lon="0.06829">
        <ele>2275.5</ele>
        <time>2015-06-13T09:19:38Z</time>
      </trkpt>
      <trkpt lat="42.98465" lon="0.06823">
        <ele>2270.5</ele>
        <time>2015-06-13T09:20:20Z</time>
      </trkpt>
      <trkpt lat="42.98466" lon="0.06823">
        <ele>2269.7</ele>
        <time>2015-06-13T09:20:21Z</time>
      </trkpt>
      <trkpt lat="42.98482" lon="0.06814">
        <ele>2259.6</ele>
        <time>2015-06-13T09:21:14Z</time>
      </trkpt>
      <trkpt lat="42.98491" lon="0.06813">
        <ele>2256.3</ele>
        <time>2015-06-13T09:21:29Z</time>
      </trkpt>
      <trkpt lat="42.98491" lon="0.06813">
        <ele>2256.3</ele>
        <time>2015-06-13T09:21:30Z</time>
      </trkpt>
      <trkpt lat="42.98508" lon="0.06815">
        <ele>2249.4</ele>
        <time>2015-06-13T09:21:56Z</time>
      </trkpt>
      <trkpt lat="42.98517" lon="0.06815">
        <ele>2247.8</ele>
        <time>2015-06-13T09:22:05Z</time>
      </trkpt>
      <trkpt lat="42.98525" lon="0.06813">
        <ele>2245</ele>
        <time>2015-06-13T09:22:20Z</time>
      </trkpt>
      <trkpt lat="42.98533" lon="0.06813">
        <ele>2243.3</ele>
        <time>2015-06-13T09:22:34Z</time>
      </trkpt>
      <trkpt lat="42.98534" lon="0.06813">
        <ele>2242.9</ele>
        <time>2015-06-13T09:22:35Z</time>
      </trkpt>
      <trkpt lat="42.9855" lon="0.06817">
        <ele>2238.4</ele>
        <time>2015-06-13T09:23:07Z</time>
      </trkpt>
      <trkpt lat="42.98558" lon="0.06813">
        <ele>2232.2</ele>
        <time>2015-06-13T09:23:39Z</time>
      </trkpt>
      <trkpt lat="42.98559" lon="0.06812">
        <ele>2232.2</ele>
        <time>2015-06-13T09:23:40Z</time>
      </trkpt>
      <trkpt lat="42.98567" lon="0.06795">
        <ele>2222.6</ele>
        <time>2015-06-13T09:24:37Z</time>
      </trkpt>
      <trkpt lat="42.98575" lon="0.0679">
        <ele>2217.2</ele>
        <time>2015-06-13T09:24:53Z</time>
      </trkpt>
      <trkpt lat="42.98575" lon="0.06789">
        <ele>2216.8</ele>
        <time>2015-06-13T09:24:54Z</time>
      </trkpt>
      <trkpt lat="42.98586" lon="0.06771">
        <ele>2205.3</ele>
        <time>2015-06-13T09:26:02Z</time>
      </trkpt>
      <trkpt lat="42.98586" lon="0.0677">
        <ele>2204.8</ele>
        <time>2015-06-13T09:26:03Z</time>
      </trkpt>
      <trkpt lat="42.98602" lon="0.06768">
        <ele>2197.7</ele>
        <time>2015-06-13T09:26:25Z</time>
      </trkpt>
      <trkpt lat="42.98606" lon="0.06757">
        <ele>2190.9</ele>
        <time>2015-06-13T09:26:53Z</time>
      </trkpt>
      <trkpt lat="42.98615" lon="0.06757">
        <ele>2184.9</ele>
        <time>2015-06-13T09:27:20Z</time>
      </trkpt>
      <trkpt lat="42.98616" lon="0.06758">
        <ele>2184.7</ele>
        <time>2015-06-13T09:27:21Z</time>
      </trkpt>
      <trkpt lat="42.98632" lon="0.06752">
        <ele>2179</ele>
        <time>2015-06-13T09:27:48Z</time>
      </trkpt>
      <trkpt lat="42.98639" lon="0.06749">
        <ele>2176.4</ele>
        <time>2015-06-13T09:27:57Z</time>
      </trkpt>
      <trkpt lat="42.98648" lon="0.06749">
        <ele>2175.2</ele>
        <time>2015-06-13T09:28:04Z</time>
      </trkpt>
      <trkpt lat="42.98656" lon="0.06746">
        <ele>2174</ele>
        <time>2015-06-13T09:28:11Z</time>
      </trkpt>
      <trkpt lat="42.98664" lon="0.06743">
        <ele>2171.4</ele>
        <time>2015-06-13T09:28:18Z</time>
      </trkpt>
      <trkpt lat="42.98672" lon="0.06737">
        <ele>2170.2</ele>
        <time>2015-06-13T09:28:26Z</time>
      </trkpt>
      <trkpt lat="42.98673" lon="0.06736">
        <ele>2170.3</ele>
        <time>2015-06-13T09:28:27Z</time>
      </trkpt>
      <trkpt lat="42.98687" lon="0.06731">
        <ele>2167.5</ele>
        <time>2015-06-13T09:28:39Z</time>
      </trkpt>
      <trkpt lat="42.98695" lon="0.06726">
        <ele>2166.3</ele>
        <time>2015-06-13T09:28:46Z</time>
      </trkpt>
      <trkpt lat="42.98703" lon="0.0672">
        <ele>2165.8</ele>
        <time>2015-06-13T09:28:53Z</time>
      </trkpt>
      <trkpt lat="42.9871" lon="0.06715">
        <ele>2164.7</ele>
        <time>2015-06-13T09:28:59Z</time>
      </trkpt>
      <trkpt lat="42.98718" lon="0.06712">
        <ele>2164.6</ele>
        <time>2015-06-13T09:29:06Z</time>
      </trkpt>
      <trkpt lat="42.98725" lon="0.06708">
        <ele>2164.2</ele>
        <time>2015-06-13T09:29:16Z</time>
      </trkpt>
      <trkpt lat="42.98733" lon="0.06704">
        <ele>2163</ele>
        <time>2015-06-13T09:29:24Z</time>
      </trkpt>
      <trkpt lat="42.9874" lon="0.06699">
        <ele>2159.6</ele>
        <time>2015-06-13T09:29:31Z</time>
      </trkpt>
      <trkpt lat="42.98741" lon="0.06698">
        <ele>2159.4</ele>
        <time>2015-06-13T09:29:32Z</time>
      </trkpt>
      <trkpt lat="42.98756" lon="0.06694">
        <ele>2159.4</ele>
        <time>2015-06-13T09:29:45Z</time>
      </trkpt>
      <trkpt lat="42.98765" lon="0.06698">
        <ele>2160</ele>
        <time>2015-06-13T09:29:58Z</time>
      </trkpt>
      <trkpt lat="42.98773" lon="0.067">
        <ele>2158.3</ele>
        <time>2015-06-13T09:30:13Z</time>
      </trkpt>
      <trkpt lat="42.98782" lon="0.06701">
        <ele>2154.2</ele>
        <time>2015-06-13T09:30:37Z</time>
      </trkpt>
      <trkpt lat="42.98783" lon="0.06701">
        <ele>2154.2</ele>
        <time>2015-06-13T09:30:38Z</time>
      </trkpt>
      <trkpt lat="42.98796" lon="0.0669">
        <ele>2143.7</ele>
        <time>2015-06-13T09:31:27Z</time>
      </trkpt>
      <trkpt lat="42.98804" lon="0.06684">
        <ele>2138.7</ele>
        <time>2015-06-13T09:31:45Z</time>
      </trkpt>
      <trkpt lat="42.98804" lon="0.06684">
        <ele>2138.5</ele>
        <time>2015-06-13T09:31:46Z</time>
      </trkpt>
      <trkpt lat="42.98819" lon="0.06673">
        <ele>2128</ele>
        <time>2015-06-13T09:32:20Z</time>
      </trkpt>
      <trkpt lat="42.98827" lon="0.06668">
        <ele>2122.7</ele>
        <time>2015-06-13T09:33:07Z</time>
      </trkpt>
      <trkpt lat="42.98827" lon="0.06668">
        <ele>2122.3</ele>
        <time>2015-06-13T09:33:08Z</time>
      </trkpt>
      <trkpt lat="42.98837" lon="0.06651">
        <ele>2113.8</ele>
        <time>2015-06-13T09:33:36Z</time>
      </trkpt>
      <trkpt lat="42.98846" lon="0.0665">
        <ele>2110.9</ele>
        <time>2015-06-13T09:33:47Z</time>
      </trkpt>
      <trkpt lat="42.98851" lon="0.06641">
        <ele>2107.8</ele>
        <time>2015-06-13T09:33:59Z</time>
      </trkpt>
      <trkpt lat="42.98859" lon="0.06635">
        <ele>2104.9</ele>
        <time>2015-06-13T09:34:11Z</time>
      </trkpt>
      <trkpt lat="42.98859" lon="0.06634">
        <ele>2104.7</ele>
        <time>2015-06-13T09:34:12Z</time>
      </trkpt>
      <trkpt lat="42.98871" lon="0.06619">
        <ele>2099.1</ele>
        <time>2015-06-13T09:34:30Z</time>
      </trkpt>
      <trkpt lat="42.98878" lon="0.06612">
        <ele>2095.9</ele>
        <time>2015-06-13T09:34:38Z</time>
      </trkpt>
      <trkpt lat="42.98884" lon="0.06604">
        <ele>2095</ele>
        <time>2015-06-13T09:34:45Z</time>
      </trkpt>
      <trkpt lat="42.98891" lon="0.06597">
        <ele>2093</ele>
        <time>2015-06-13T09:34:52Z</time>
      </trkpt>
      <trkpt lat="42.98899" lon="0.06591">
        <ele>2091.2</ele>
        <time>2015-06-13T09:35:00Z</time>
      </trkpt>
      <trkpt lat="42.98906" lon="0.06585">
        <ele>2091.5</ele>
        <time>2015-06-13T09:35:08Z</time>
      </trkpt>
      <trkpt lat="42.98913" lon="0.06579">
        <ele>2091.5</ele>
        <time>2015-06-13T09:35:16Z</time>
      </trkpt>
      <trkpt lat="42.98914" lon="0.06578">
        <ele>2091.7</ele>
        <time>2015-06-13T09:35:17Z</time>
      </trkpt>
      <trkpt lat="42.98929" lon="0.06571">
        <ele>2091</ele>
        <time>2015-06-13T09:35:32Z</time>
      </trkpt>
      <trkpt lat="42.98936" lon="0.06564">
        <ele>2088.5</ele>
        <time>2015-06-13T09:35:41Z</time>
      </trkpt>
      <trkpt lat="42.98941" lon="0.06555">
        <ele>2086.9</ele>
        <time>2015-06-13T09:35:49Z</time>
      </trkpt>
      <trkpt lat="42.98946" lon="0.06545">
        <ele>2085.4</ele>
        <time>2015-06-13T09:36:01Z</time>
      </trkpt>
      <trkpt lat="42.98952" lon="0.06538">
        <ele>2084.3</ele>
        <time>2015-06-13T09:36:09Z</time>
      </trkpt>
      <trkpt lat="42.98958" lon="0.0653">
        <ele>2081.9</ele>
        <time>2015-06-13T09:36:18Z</time>
      </trkpt>
      <trkpt lat="42.98959" lon="0.0653">
        <ele>2081.9</ele>
        <time>2015-06-13T09:36:19Z</time>
      </trkpt>
      <trkpt lat="42.98971" lon="0.06516">
        <ele>2078.1</ele>
        <time>2015-06-13T09:36:43Z</time>
      </trkpt>
      <trkpt lat="42.98979" lon="0.06513">
        <ele>2078.4</ele>
        <time>2015-06-13T09:36:51Z</time>
      </trkpt>
      <trkpt lat="42.98987" lon="0.06512">
        <ele>2076.6</ele>
        <time>2015-06-13T09:37:02Z</time>
      </trkpt>
      <trkpt lat="42.98995" lon="0.06509">
        <ele>2076.5</ele>
        <time>2015-06-13T09:37:11Z</time>
      </trkpt>
      <trkpt lat="42.99001" lon="0.06499">
        <ele>2073.4</ele>
        <time>2015-06-13T09:37:29Z</time>
      </trkpt>
      <trkpt lat="42.99001" lon="0.06499">
        <ele>2073.4</ele>
        <time>2015-06-13T09:37:30Z</time>
      </trkpt>
      <trkpt lat="42.9901" lon="0.06519">
        <ele>2063.6</ele>
        <time>2015-06-13T09:38:21Z</time>
      </trkpt>
      <trkpt lat="42.99011" lon="0.06531">
        <ele>2059</ele>
        <time>2015-06-13T09:38:37Z</time>
      </trkpt>
      <trkpt lat="42.99011" lon="0.06532">
        <ele>2058.7</ele>
        <time>2015-06-13T09:38:38Z</time>
      </trkpt>
      <trkpt lat="42.99015" lon="0.06553">
        <ele>2052.3</ele>
        <time>2015-06-13T09:39:06Z</time>
      </trkpt>
      <trkpt lat="42.99021" lon="0.06562">
        <ele>2046.9</ele>
        <time>2015-06-13T09:39:25Z</time>
      </trkpt>
      <trkpt lat="42.9903" lon="0.06564">
        <ele>2043.2</ele>
        <time>2015-06-13T09:39:41Z</time>
      </trkpt>
      <trkpt lat="42.99031" lon="0.06564">
        <ele>2043.3</ele>
        <time>2015-06-13T09:39:42Z</time>
      </trkpt>
      <trkpt lat="42.99042" lon="0.06578">
        <ele>2034.3</ele>
        <time>2015-06-13T09:40:13Z</time>
      </trkpt>
      <trkpt lat="42.99049" lon="0.06585">
        <ele>2029.2</ele>
        <time>2015-06-13T09:40:32Z</time>
      </trkpt>
      <trkpt lat="42.99053" lon="0.06595">
        <ele>2026.9</ele>
        <time>2015-06-13T09:40:44Z</time>
      </trkpt>
      <trkpt lat="42.99053" lon="0.06596">
        <ele>2027</ele>
        <time>2015-06-13T09:40:45Z</time>
      </trkpt>
      <trkpt lat="42.99058" lon="0.06618">
        <ele>2021.9</ele>
        <time>2015-06-13T09:41:05Z</time>
      </trkpt>
      <trkpt lat="42.99059" lon="0.06629">
        <ele>2020.4</ele>
        <time>2015-06-13T09:41:14Z</time>
      </trkpt>
      <trkpt lat="42.99063" lon="0.0664">
        <ele>2017.7</ele>
        <time>2015-06-13T09:41:25Z</time>
      </trkpt>
      <trkpt lat="42.99067" lon="0.0665">
        <ele>2014.1</ele>
        <time>2015-06-13T09:41:38Z</time>
      </trkpt>
      <trkpt lat="42.99069" lon="0.06661">
        <ele>2011.7</ele>
        <time>2015-06-13T09:41:50Z</time>
      </trkpt>
      <trkpt lat="42.9907" lon="0.06663">
        <ele>2011.1</ele>
        <time>2015-06-13T09:41:51Z</time>
      </trkpt>
      <trkpt lat="42.99072" lon="0.06683">
        <ele>2008.9</ele>
        <time>2015-06-13T09:42:02Z</time>
      </trkpt>
      <trkpt lat="42.99076" lon="0.06693">
        <ele>2008.6</ele>
        <time>2015-06-13T09:42:09Z</time>
      </trkpt>
      <trkpt lat="42.99081" lon="0.06703">
        <ele>2006.7</ele>
        <time>2015-06-13T09:42:16Z</time>
      </trkpt>
      <trkpt lat="42.99081" lon="0.06714">
        <ele>2006.5</ele>
        <time>2015-06-13T09:42:23Z</time>
      </trkpt>
      <trkpt lat="42.99082" lon="0.06726">
        <ele>2006.5</ele>
        <time>2015-06-13T09:42:31Z</time>
      </trkpt>
      <trkpt lat="42.99086" lon="0.06736">
        <ele>2005.4</ele>
        <time>2015-06-13T09:42:41Z</time>
      </trkpt>
      <trkpt lat="42.99095" lon="0.06739">
        <ele>2004.3</ele>
        <time>2015-06-13T09:42:53Z</time>
      </trkpt>
      <trkpt lat="42.99095" lon="0.0674">
        <ele>2004.4</ele>
        <time>2015-06-13T09:42:54Z</time>
      </trkpt>
      <trkpt lat="42.99112" lon="0.06739">
        <ele>1998</ele>
        <time>2015-06-13T09:43:22Z</time>
      </trkpt>
      <trkpt lat="42.99119" lon="0.06743">
        <ele>1995</ele>
        <time>2015-06-13T09:43:30Z</time>
      </trkpt>
      <trkpt lat="42.99128" lon="0.06746">
        <ele>1993.8</ele>
        <time>2015-06-13T09:43:39Z</time>
      </trkpt>
      <trkpt lat="42.99135" lon="0.06741">
        <ele>1991.6</ele>
        <time>2015-06-13T09:43:47Z</time>
      </trkpt>
      <trkpt lat="42.99141" lon="0.06734">
        <ele>1989.5</ele>
        <time>2015-06-13T09:43:54Z</time>
      </trkpt>
      <trkpt lat="42.99142" lon="0.06732">
        <ele>1989</ele>
        <time>2015-06-13T09:43:55Z</time>
      </trkpt>
      <trkpt lat="42.99151" lon="0.06716">
        <ele>1986.8</ele>
        <time>2015-06-13T09:44:07Z</time>
      </trkpt>
      <trkpt lat="42.99154" lon="0.06706">
        <ele>1985.3</ele>
        <time>2015-06-13T09:44:14Z</time>
      </trkpt>
      <trkpt lat="42.99157" lon="0.06694">
        <ele>1983.7</ele>
        <time>2015-06-13T09:44:22Z</time>
      </trkpt>
      <trkpt lat="42.99161" lon="0.06685">
        <ele>1981</ele>
        <time>2015-06-13T09:44:31Z</time>
      </trkpt>
      <trkpt lat="42.9917" lon="0.06686">
        <ele>1978.1</ele>
        <time>2015-06-13T09:44:42Z</time>
      </trkpt>
      <trkpt lat="42.99178" lon="0.06688">
        <ele>1974.9</ele>
        <time>2015-06-13T09:44:56Z</time>
      </trkpt>
      <trkpt lat="42.99179" lon="0.06688">
        <ele>1974.9</ele>
        <time>2015-06-13T09:44:57Z</time>
      </trkpt>
      <trkpt lat="42.99195" lon="0.06694">
        <ele>1970.1</ele>
        <time>2015-06-13T09:45:20Z</time>
      </trkpt>
      <trkpt lat="42.99203" lon="0.06695">
        <ele>1966.2</ele>
        <time>2015-06-13T09:45:32Z</time>
      </trkpt>
      <trkpt lat="42.99212" lon="0.06699">
        <ele>1963.8</ele>
        <time>2015-06-13T09:45:45Z</time>
      </trkpt>
      <trkpt lat="42.9922" lon="0.06695">
        <ele>1960.6</ele>
        <time>2015-06-13T09:46:02Z</time>
      </trkpt>
      <trkpt lat="42.99221" lon="0.06695">
        <ele>1960.1</ele>
        <time>2015-06-13T09:46:03Z</time>
      </trkpt>
      <trkpt lat="42.99237" lon="0.06696">
        <ele>1953</ele>
        <time>2015-06-13T09:46:25Z</time>
      </trkpt>
      <trkpt lat="42.99245" lon="0.06699">
        <ele>1950.3</ele>
        <time>2015-06-13T09:46:38Z</time>
      </trkpt>
      <trkpt lat="42.99254" lon="0.067">
        <ele>1946.7</ele>
        <time>2015-06-13T09:46:49Z</time>
      </trkpt>
      <trkpt lat="42.99262" lon="0.06699">
        <ele>1944.4</ele>
        <time>2015-06-13T09:47:00Z</time>
      </trkpt>
      <trkpt lat="42.99271" lon="0.067">
        <ele>1940.7</ele>
        <time>2015-06-13T09:47:13Z</time>
      </trkpt>
      <trkpt lat="42.99271" lon="0.067">
        <ele>1940.2</ele>
        <time>2015-06-13T09:47:14Z</time>
      </trkpt>
      <trkpt lat="42.99288" lon="0.06698">
        <ele>1932.4</ele>
        <time>2015-06-13T09:47:49Z</time>
      </trkpt>
      <trkpt lat="42.99295" lon="0.06692">
        <ele>1928.7</ele>
        <time>2015-06-13T09:48:04Z</time>
      </trkpt>
      <trkpt lat="42.99302" lon="0.06685">
        <ele>1923.2</ele>
        <time>2015-06-13T09:48:24Z</time>
      </trkpt>
      <trkpt lat="42.99302" lon="0.06684">
        <ele>1923.3</ele>
        <time>2015-06-13T09:48:25Z</time>
      </trkpt>
      <trkpt lat="42.99318" lon="0.06678">
        <ele>1913.1</ele>
        <time>2015-06-13T09:49:08Z</time>
      </trkpt>
      <trkpt lat="42.99326" lon="0.06672">
        <ele>1907.2</ele>
        <time>2015-06-13T09:49:34Z</time>
      </trkpt>
      <trkpt lat="42.99326" lon="0.06672">
        <ele>1907</ele>
        <time>2015-06-13T09:49:35Z</time>
      </trkpt>
      <trkpt lat="42.99342" lon="0.06669">
        <ele>1898.7</ele>
        <time>2015-06-13T09:50:03Z</time>
      </trkpt>
      <trkpt lat="42.9935" lon="0.06663">
        <ele>1894.5</ele>
        <time>2015-06-13T09:50:17Z</time>
      </trkpt>
      <trkpt lat="42.99358" lon="0.06666">
        <ele>1889.1</ele>
        <time>2015-06-13T09:50:29Z</time>
      </trkpt>
      <trkpt lat="42.99367" lon="0.06665">
        <ele>1884.4</ele>
        <time>2015-06-13T09:50:48Z</time>
      </trkpt>
      <trkpt lat="42.99367" lon="0.06665">
        <ele>1883.9</ele>
        <time>2015-06-13T09:50:49Z</time>
      </trkpt>
      <trkpt lat="42.99384" lon="0.06662">
        <ele>1876.3</ele>
        <time>2015-06-13T09:51:17Z</time>
      </trkpt>
      <trkpt lat="42.99392" lon="0.06665">
        <ele>1871.5</ele>
        <time>2015-06-13T09:51:33Z</time>
      </trkpt>
      <trkpt lat="42.99401" lon="0.06662">
        <ele>1867</ele>
        <time>2015-06-13T09:51:53Z</time>
      </trkpt>
      <trkpt lat="42.99401" lon="0.06661">
        <ele>1867.2</ele>
        <time>2015-06-13T09:51:54Z</time>
      </trkpt>
      <trkpt lat="42.99418" lon="0.06657">
        <ele>1855.2</ele>
        <time>2015-06-13T09:52:42Z</time>
      </trkpt>
      <trkpt lat="42.99426" lon="0.06653">
        <ele>1849.9</ele>
        <time>2015-06-13T09:53:15Z</time>
      </trkpt>
      <trkpt lat="42.99426" lon="0.06652">
        <ele>1849.7</ele>
        <time>2015-06-13T09:53:16Z</time>
      </trkpt>
      <trkpt lat="42.99443" lon="0.06652">
        <ele>1840.2</ele>
        <time>2015-06-13T09:53:50Z</time>
      </trkpt>
      <trkpt lat="42.99449" lon="0.06645">
        <ele>1836.6</ele>
        <time>2015-06-13T09:54:00Z</time>
      </trkpt>
      <trkpt lat="42.99452" lon="0.06633">
        <ele>1833.6</ele>
        <time>2015-06-13T09:54:11Z</time>
      </trkpt>
      <trkpt lat="42.99459" lon="0.06627">
        <ele>1829.4</ele>
        <time>2015-06-13T09:54:28Z</time>
      </trkpt>
      <trkpt lat="42.9946" lon="0.06627">
        <ele>1829.1</ele>
        <time>2015-06-13T09:54:29Z</time>
      </trkpt>
      <trkpt lat="42.99476" lon="0.06629">
        <ele>1821.1</ele>
        <time>2015-06-13T09:55:04Z</time>
      </trkpt>
      <trkpt lat="42.99483" lon="0.06636">
        <ele>1815.3</ele>
        <time>2015-06-13T09:55:23Z</time>
      </trkpt>
      <trkpt lat="42.99483" lon="0.06648">
        <ele>1811.8</ele>
        <time>2015-06-13T09:55:39Z</time>
      </trkpt>
      <trkpt lat="42.99483" lon="0.0665">
        <ele>1811.7</ele>
        <time>2015-06-13T09:55:40Z</time>
      </trkpt>
      <trkpt lat="42.995" lon="0.06732">
        <ele>1792.9</ele>
        <time>2015-06-13T09:57:28Z</time>
      </trkpt>
      <trkpt lat="42.99509" lon="0.06771">
        <ele>1772</ele>
        <time>2015-06-13T09:58:21Z</time>
      </trkpt>
      <trkpt lat="42.99512" lon="0.06775">
        <ele>1769</ele>
        <time>2015-06-13T09:58:46Z</time>
      </trkpt>
      <trkpt lat="42.99671" lon="0.07438">
        <ele>1595.2</ele>
        <time>2015-06-13T10:11:38Z</time>
      </trkpt>
      <trkpt lat="42.99691" lon="0.076">
        <ele>1539.8</ele>
        <time>2015-06-13T10:16:09Z</time>
      </trkpt>
      <trkpt lat="42.99681" lon="0.07718">
        <ele>1512</ele>
        <time>2015-06-13T10:18:05Z</time>
      </trkpt>
      <trkpt lat="42.99671" lon="0.07861">
        <ele>1494.8</ele>
        <time>2015-06-13T10:19:16Z</time>
      </trkpt>
      <trkpt lat="42.99379" lon="0.08426">
        <ele>1366.4</ele>
        <time>2015-06-13T10:29:47Z</time>
      </trkpt>
      <trkpt lat="42.99361" lon="0.0845">
        <ele>1338</ele>
        <time>2015-06-13T10:30:00Z</time>
      </trkpt>
      <trkpt lat="42.99351" lon="0.08468">
        <ele>1335</ele>
        <time>2015-06-13T10:30:08Z</time>
      </trkpt>
      <trkpt lat="42.99345" lon="0.08486">
        <ele>1334</ele>
        <time>2015-06-13T10:30:16Z</time>
      </trkpt>
      <trkpt lat="42.99342" lon="0.08498">
        <ele>1333</ele>
        <time>2015-06-13T10:30:24Z</time>
      </trkpt>
      <trkpt lat="42.99338" lon="0.08513">
        <ele>1331</ele>
        <time>2015-06-13T10:30:32Z</time>
      </trkpt>
      <trkpt lat="42.99332" lon="0.08528">
        <ele>1329</ele>
        <time>2015-06-13T10:30:40Z</time>
      </trkpt>
      <trkpt lat="42.99323" lon="0.08539">
        <ele>1328</ele>
        <time>2015-06-13T10:30:48Z</time>
      </trkpt>
      <trkpt lat="42.9932" lon="0.08544">
        <ele>1328.6</ele>
        <time>2015-06-13T10:30:51Z</time>
      </trkpt>
      <trkpt lat="42.99313" lon="0.08564">
        <ele>1323</ele>
        <time>2015-06-13T10:31:03Z</time>
      </trkpt>
      <trkpt lat="42.99309" lon="0.08577">
        <ele>1321</ele>
        <time>2015-06-13T10:31:11Z</time>
      </trkpt>
      <trkpt lat="42.99312" lon="0.08589">
        <ele>1319.4</ele>
        <time>2015-06-13T10:31:19Z</time>
      </trkpt>
      <trkpt lat="42.99317" lon="0.08599">
        <ele>1318.3</ele>
        <time>2015-06-13T10:31:28Z</time>
      </trkpt>
      <trkpt lat="42.99316" lon="0.08611">
        <ele>1317.7</ele>
        <time>2015-06-13T10:31:39Z</time>
      </trkpt>
      <trkpt lat="42.99314" lon="0.08621">
        <ele>1316.3</ele>
        <time>2015-06-13T10:31:46Z</time>
      </trkpt>
      <trkpt lat="42.99312" lon="0.08632">
        <ele>1315.3</ele>
        <time>2015-06-13T10:31:52Z</time>
      </trkpt>
      <trkpt lat="42.99312" lon="0.08634">
        <ele>1315.4</ele>
        <time>2015-06-13T10:31:53Z</time>
      </trkpt>
      <trkpt lat="42.99306" lon="0.08652">
        <ele>1313.3</ele>
        <time>2015-06-13T10:32:04Z</time>
      </trkpt>
      <trkpt lat="42.993" lon="0.08658">
        <ele>1311.1</ele>
        <time>2015-06-13T10:32:13Z</time>
      </trkpt>
      <trkpt lat="42.99293" lon="0.08664">
        <ele>1308.9</ele>
        <time>2015-06-13T10:32:20Z</time>
      </trkpt>
      <trkpt lat="42.99291" lon="0.08676">
        <ele>1307</ele>
        <time>2015-06-13T10:32:36Z</time>
      </trkpt>
      <trkpt lat="42.99291" lon="0.08688">
        <ele>1304.8</ele>
        <time>2015-06-13T10:32:45Z</time>
      </trkpt>
      <trkpt lat="42.99291" lon="0.08699">
        <ele>1304</ele>
        <time>2015-06-13T10:32:52Z</time>
      </trkpt>
      <trkpt lat="42.99283" lon="0.08702">
        <ele>1299.5</ele>
        <time>2015-06-13T10:33:07Z</time>
      </trkpt>
      <trkpt lat="42.99283" lon="0.08703">
        <ele>1299.3</ele>
        <time>2015-06-13T10:33:08Z</time>
      </trkpt>
      <trkpt lat="42.99284" lon="0.08718">
        <ele>1297.4</ele>
        <time>2015-06-13T10:33:45Z</time>
      </trkpt>
      <trkpt lat="42.99287" lon="0.08729">
        <ele>1296.4</ele>
        <time>2015-06-13T10:33:51Z</time>
      </trkpt>
      <trkpt lat="42.99286" lon="0.08741">
        <ele>1296.6</ele>
        <time>2015-06-13T10:33:57Z</time>
      </trkpt>
      <trkpt lat="42.99284" lon="0.08751">
        <ele>1295.8</ele>
        <time>2015-06-13T10:34:04Z</time>
      </trkpt>
      <trkpt lat="42.99278" lon="0.0876">
        <ele>1296.7</ele>
        <time>2015-06-13T10:34:11Z</time>
      </trkpt>
      <trkpt lat="42.99277" lon="0.08762">
        <ele>1296.5</ele>
        <time>2015-06-13T10:34:12Z</time>
      </trkpt>
      <trkpt lat="42.99268" lon="0.08777">
        <ele>1296.2</ele>
        <time>2015-06-13T10:34:20Z</time>
      </trkpt>
      <trkpt lat="42.99261" lon="0.08784">
        <ele>1295.3</ele>
        <time>2015-06-13T10:34:24Z</time>
      </trkpt>
      <trkpt lat="42.99255" lon="0.0879">
        <ele>1294.4</ele>
        <time>2015-06-13T10:34:28Z</time>
      </trkpt>
      <trkpt lat="42.99247" lon="0.08796">
        <ele>1295.5</ele>
        <time>2015-06-13T10:34:33Z</time>
      </trkpt>
      <trkpt lat="42.99241" lon="0.08804">
        <ele>1295.4</ele>
        <time>2015-06-13T10:34:38Z</time>
      </trkpt>
      <trkpt lat="42.99234" lon="0.08812">
        <ele>1293.6</ele>
        <time>2015-06-13T10:34:43Z</time>
      </trkpt>
      <trkpt lat="42.99229" lon="0.08819">
        <ele>1294</ele>
        <time>2015-06-13T10:34:47Z</time>
      </trkpt>
      <trkpt lat="42.99223" lon="0.08827">
        <ele>1293.7</ele>
        <time>2015-06-13T10:34:53Z</time>
      </trkpt>
      <trkpt lat="42.99215" lon="0.08834">
        <ele>1293</ele>
        <time>2015-06-13T10:34:59Z</time>
      </trkpt>
      <trkpt lat="42.99209" lon="0.0884">
        <ele>1292.1</ele>
        <time>2015-06-13T10:35:04Z</time>
      </trkpt>
      <trkpt lat="42.99204" lon="0.08849">
        <ele>1290.1</ele>
        <time>2015-06-13T10:35:10Z</time>
      </trkpt>
      <trkpt lat="42.99201" lon="0.0886">
        <ele>1288.2</ele>
        <time>2015-06-13T10:35:17Z</time>
      </trkpt>
      <trkpt lat="42.992" lon="0.08862">
        <ele>1288.1</ele>
        <time>2015-06-13T10:35:18Z</time>
      </trkpt>
      <trkpt lat="42.99191" lon="0.0888">
        <ele>1283.4</ele>
        <time>2015-06-13T10:35:28Z</time>
      </trkpt>
      <trkpt lat="42.99188" lon="0.08891">
        <ele>1281.9</ele>
        <time>2015-06-13T10:35:34Z</time>
      </trkpt>
      <trkpt lat="42.99184" lon="0.08902">
        <ele>1280.3</ele>
        <time>2015-06-13T10:35:42Z</time>
      </trkpt>
      <trkpt lat="42.99182" lon="0.08914">
        <ele>1278</ele>
        <time>2015-06-13T10:35:51Z</time>
      </trkpt>
      <trkpt lat="42.9918" lon="0.08925">
        <ele>1278</ele>
        <time>2015-06-13T10:35:58Z</time>
      </trkpt>
      <trkpt lat="42.99177" lon="0.08936">
        <ele>1274.9</ele>
        <time>2015-06-13T10:36:07Z</time>
      </trkpt>
      <trkpt lat="42.99176" lon="0.08947">
        <ele>1271.9</ele>
        <time>2015-06-13T10:36:19Z</time>
      </trkpt>
      <trkpt lat="42.99176" lon="0.08949">
        <ele>1271.7</ele>
        <time>2015-06-13T10:36:20Z</time>
      </trkpt>
      <trkpt lat="42.99174" lon="0.0897">
        <ele>1268.7</ele>
        <time>2015-06-13T10:36:35Z</time>
      </trkpt>
      <trkpt lat="42.99173" lon="0.08982">
        <ele>1267.6</ele>
        <time>2015-06-13T10:36:42Z</time>
      </trkpt>
      <trkpt lat="42.99173" lon="0.08994">
        <ele>1266.5</ele>
        <time>2015-06-13T10:36:50Z</time>
      </trkpt>
      <trkpt lat="42.99175" lon="0.09005">
        <ele>1263.7</ele>
        <time>2015-06-13T10:36:58Z</time>
      </trkpt>
      <trkpt lat="42.99176" lon="0.09017">
        <ele>1260.9</ele>
        <time>2015-06-13T10:37:06Z</time>
      </trkpt>
      <trkpt lat="42.99178" lon="0.09027">
        <ele>1259.3</ele>
        <time>2015-06-13T10:37:13Z</time>
      </trkpt>
      <trkpt lat="42.99181" lon="0.09038">
        <ele>1256.9</ele>
        <time>2015-06-13T10:37:21Z</time>
      </trkpt>
      <trkpt lat="42.99181" lon="0.0904">
        <ele>1256.9</ele>
        <time>2015-06-13T10:37:22Z</time>
      </trkpt>
      <trkpt lat="42.99194" lon="0.09053">
        <ele>1255.7</ele>
        <time>2015-06-13T10:37:34Z</time>
      </trkpt>
      <trkpt lat="42.99195" lon="0.09064">
        <ele>1253.7</ele>
        <time>2015-06-13T10:37:42Z</time>
      </trkpt>
      <trkpt lat="42.99198" lon="0.09074">
        <ele>1251</ele>
        <time>2015-06-13T10:37:50Z</time>
      </trkpt>
      <trkpt lat="42.99199" lon="0.09086">
        <ele>1248.9</ele>
        <time>2015-06-13T10:38:00Z</time>
      </trkpt>
      <trkpt lat="42.99198" lon="0.09097">
        <ele>1246</ele>
        <time>2015-06-13T10:38:08Z</time>
      </trkpt>
      <trkpt lat="42.99198" lon="0.09109">
        <ele>1243.3</ele>
        <time>2015-06-13T10:38:16Z</time>
      </trkpt>
      <trkpt lat="42.99196" lon="0.0912">
        <ele>1241.3</ele>
        <time>2015-06-13T10:38:23Z</time>
      </trkpt>
      <trkpt lat="42.99197" lon="0.09122">
        <ele>1240.8</ele>
        <time>2015-06-13T10:38:24Z</time>
      </trkpt>
      <trkpt lat="42.99204" lon="0.09139">
        <ele>1236.7</ele>
        <time>2015-06-13T10:38:38Z</time>
      </trkpt>
      <trkpt lat="42.99206" lon="0.09174">
        <ele>1232</ele>
        <time>2015-06-13T10:38:55Z</time>
      </trkpt>
      <trkpt lat="42.99203" lon="0.09185">
        <ele>1230.3</ele>
        <time>2015-06-13T10:39:04Z</time>
      </trkpt>
      <trkpt lat="42.99202" lon="0.09197">
        <ele>1226.7</ele>
        <time>2015-06-13T10:39:14Z</time>
      </trkpt>
      <trkpt lat="42.992" lon="0.09209">
        <ele>1223</ele>
        <time>2015-06-13T10:39:22Z</time>
      </trkpt>
      <trkpt lat="42.99199" lon="0.09211">
        <ele>1223.4</ele>
        <time>2015-06-13T10:39:24Z</time>
      </trkpt>
      <trkpt lat="42.99193" lon="0.09233">
        <ele>1222.2</ele>
        <time>2015-06-13T10:39:36Z</time>
      </trkpt>
      <trkpt lat="42.99189" lon="0.09243">
        <ele>1219.3</ele>
        <time>2015-06-13T10:39:44Z</time>
      </trkpt>
      <trkpt lat="42.99189" lon="0.09254">
        <ele>1218.5</ele>
        <time>2015-06-13T10:39:49Z</time>
      </trkpt>
      <trkpt lat="42.99186" lon="0.09265">
        <ele>1215.8</ele>
        <time>2015-06-13T10:39:54Z</time>
      </trkpt>
      <trkpt lat="42.99185" lon="0.09277">
        <ele>1213</ele>
        <time>2015-06-13T10:40:02Z</time>
      </trkpt>
      <trkpt lat="42.99181" lon="0.09287">
        <ele>1209.7</ele>
        <time>2015-06-13T10:40:15Z</time>
      </trkpt>
      <trkpt lat="42.99178" lon="0.09297">
        <ele>1208.3</ele>
        <time>2015-06-13T10:40:20Z</time>
      </trkpt>
      <trkpt lat="42.99175" lon="0.09309">
        <ele>1205.3</ele>
        <time>2015-06-13T10:40:28Z</time>
      </trkpt>
      <trkpt lat="42.99175" lon="0.0931">
        <ele>1205</ele>
        <time>2015-06-13T10:40:29Z</time>
      </trkpt>
      <trkpt lat="42.99172" lon="0.09331">
        <ele>1202</ele>
        <time>2015-06-13T10:40:39Z</time>
      </trkpt>
      <trkpt lat="42.9917" lon="0.09341">
        <ele>1201</ele>
        <time>2015-06-13T10:40:44Z</time>
      </trkpt>
      <trkpt lat="42.99168" lon="0.09351">
        <ele>1200.5</ele>
        <time>2015-06-13T10:40:49Z</time>
      </trkpt>
      <trkpt lat="42.99167" lon="0.09361">
        <ele>1199.2</ele>
        <time>2015-06-13T10:40:53Z</time>
      </trkpt>
      <trkpt lat="42.99165" lon="0.09373">
        <ele>1196.7</ele>
        <time>2015-06-13T10:40:59Z</time>
      </trkpt>
      <trkpt lat="42.99167" lon="0.09384">
        <ele>1193.4</ele>
        <time>2015-06-13T10:41:15Z</time>
      </trkpt>
      <trkpt lat="42.99168" lon="0.09395">
        <ele>1190.8</ele>
        <time>2015-06-13T10:41:24Z</time>
      </trkpt>
      <trkpt lat="42.99168" lon="0.09407">
        <ele>1188.3</ele>
        <time>2015-06-13T10:41:32Z</time>
      </trkpt>
      <trkpt lat="42.99168" lon="0.09408">
        <ele>1188.2</ele>
        <time>2015-06-13T10:41:33Z</time>
      </trkpt>
      <trkpt lat="42.99175" lon="0.09427">
        <ele>1183.6</ele>
        <time>2015-06-13T10:41:50Z</time>
      </trkpt>
      <trkpt lat="42.99179" lon="0.09436">
        <ele>1182.2</ele>
        <time>2015-06-13T10:41:56Z</time>
      </trkpt>
      <trkpt lat="42.99186" lon="0.09444">
        <ele>1179.7</ele>
        <time>2015-06-13T10:42:04Z</time>
      </trkpt>
      <trkpt lat="42.99149" lon="0.09544">
        <ele>1171.4</ele>
        <time>2015-06-13T10:43:42Z</time>
      </trkpt>
      <trkpt lat="42.99149" lon="0.09544">
        <ele>1171.4</ele>
        <time>2015-06-13T10:43:42Z</time>
      </trkpt>
    </trkseg>
  </trk>
</gpx>